<?xml version="1.0" encoding="UTF-8" standalone="no" ?>
<gpx xmlns="http://www.topografix.com/GPX/1/1" xmlns:xsi="http://www.w3.org/2001/XMLSchema-instance" xsi:schemaLocation="http://www.topografix.com/GPX/1/1 http://www.topografix.com/GPX/1/1/gpx.xsd" version="1.1" creator="VisuGPX - https://www.visugpx.com">
  <metadata>
    <name>Sentier de l'Adour (6)</name>
    <desc><![CDATA[Cinquième tronçon tronçon du sentier de l'Adour entre Héres et Préchac. Ce parcours a été fait en Aller-Retour depuis Maubourguet (voir par ailleurs). Seul l'Aller figure ici 

]]></desc>
  </metadata>
  <trk>
    <name><![CDATA[20 févr. 2021 à 08:53:10]]></name>
    <cmt><![CDATA[20 févr. 2021 à 08:53:10]]></cmt>
    <trkseg>
      <trkpt lat="43.55309" lon="0.00322">
        <ele>146</ele>
        <time>2021-02-20T07:53:11Z</time>
      </trkpt>
      <trkpt lat="43.55313" lon="0.00314">
        <ele>146</ele>
        <time>2021-02-20T07:53:26Z</time>
      </trkpt>
      <trkpt lat="43.55317" lon="0.0031">
        <ele>146</ele>
        <time>2021-02-20T07:53:37Z</time>
      </trkpt>
      <trkpt lat="43.55323" lon="0.00307">
        <ele>146</ele>
        <time>2021-02-20T07:53:43Z</time>
      </trkpt>
      <trkpt lat="43.55332" lon="0.00306">
        <ele>146</ele>
        <time>2021-02-20T07:53:50Z</time>
      </trkpt>
      <trkpt lat="43.55351" lon="0.00296">
        <ele>146</ele>
        <time>2021-02-20T07:54:06Z</time>
      </trkpt>
      <trkpt lat="43.55381" lon="0.00286">
        <ele>146</ele>
        <time>2021-02-20T07:54:30Z</time>
      </trkpt>
      <trkpt lat="43.55419" lon="0.00271">
        <ele>146</ele>
        <time>2021-02-20T07:55:01Z</time>
      </trkpt>
      <trkpt lat="43.55429" lon="0.00265">
        <ele>146</ele>
        <time>2021-02-20T07:55:09Z</time>
      </trkpt>
      <trkpt lat="43.55472" lon="0.00248">
        <ele>146</ele>
        <time>2021-02-20T07:55:43Z</time>
      </trkpt>
      <trkpt lat="43.55486" lon="0.00241">
        <ele>146</ele>
        <time>2021-02-20T07:55:56Z</time>
      </trkpt>
      <trkpt lat="43.55491" lon="0.00235">
        <ele>146</ele>
        <time>2021-02-20T07:56:01Z</time>
      </trkpt>
      <trkpt lat="43.55495" lon="0.00232">
        <ele>146</ele>
        <time>2021-02-20T07:56:05Z</time>
      </trkpt>
      <trkpt lat="43.555" lon="0.00227">
        <ele>146</ele>
        <time>2021-02-20T07:56:09Z</time>
      </trkpt>
      <trkpt lat="43.55505" lon="0.00225">
        <ele>146</ele>
        <time>2021-02-20T07:56:29Z</time>
      </trkpt>
      <trkpt lat="43.55516" lon="0.0021">
        <ele>145</ele>
        <time>2021-02-20T07:56:43Z</time>
      </trkpt>
      <trkpt lat="43.55519" lon="0.00204">
        <ele>145</ele>
        <time>2021-02-20T07:56:47Z</time>
      </trkpt>
      <trkpt lat="43.55521" lon="0.00191">
        <ele>145</ele>
        <time>2021-02-20T07:56:54Z</time>
      </trkpt>
      <trkpt lat="43.55522" lon="0.00186">
        <ele>145</ele>
        <time>2021-02-20T07:56:58Z</time>
      </trkpt>
      <trkpt lat="43.5552" lon="0.00178">
        <ele>145</ele>
        <time>2021-02-20T07:57:04Z</time>
      </trkpt>
      <trkpt lat="43.55512" lon="0.00158">
        <ele>145</ele>
        <time>2021-02-20T07:57:18Z</time>
      </trkpt>
      <trkpt lat="43.55511" lon="0.00152">
        <ele>145</ele>
        <time>2021-02-20T07:57:21Z</time>
      </trkpt>
      <trkpt lat="43.5551" lon="0.00132">
        <ele>145</ele>
        <time>2021-02-20T07:57:33Z</time>
      </trkpt>
      <trkpt lat="43.55501" lon="0.00105">
        <ele>146</ele>
        <time>2021-02-20T07:57:48Z</time>
      </trkpt>
      <trkpt lat="43.55488" lon="0.00077">
        <ele>146</ele>
        <time>2021-02-20T07:58:05Z</time>
      </trkpt>
      <trkpt lat="43.55476" lon="0.00037">
        <ele>147</ele>
        <time>2021-02-20T07:58:30Z</time>
      </trkpt>
      <trkpt lat="43.55473" lon="0.00031">
        <ele>147</ele>
        <time>2021-02-20T07:58:34Z</time>
      </trkpt>
      <trkpt lat="43.55471" lon="0.00025">
        <ele>147</ele>
        <time>2021-02-20T07:58:38Z</time>
      </trkpt>
      <trkpt lat="43.55464" lon="2.0E-5">
        <ele>147</ele>
        <time>2021-02-20T07:58:52Z</time>
      </trkpt>
      <trkpt lat="43.55463" lon="-5.0E-5">
        <ele>147</ele>
        <time>2021-02-20T07:58:56Z</time>
      </trkpt>
      <trkpt lat="43.55477" lon="-0.00018">
        <ele>147</ele>
        <time>2021-02-20T07:59:07Z</time>
      </trkpt>
      <trkpt lat="43.55492" lon="-0.00018">
        <ele>147</ele>
        <time>2021-02-20T07:59:19Z</time>
      </trkpt>
      <trkpt lat="43.55497" lon="-0.00016">
        <ele>147</ele>
        <time>2021-02-20T07:59:23Z</time>
      </trkpt>
      <trkpt lat="43.55542" lon="-0.0002">
        <ele>148</ele>
        <time>2021-02-20T07:59:56Z</time>
      </trkpt>
      <trkpt lat="43.55557" lon="-0.0002">
        <ele>147</ele>
        <time>2021-02-20T08:00:09Z</time>
      </trkpt>
      <trkpt lat="43.55562" lon="-0.00022">
        <ele>147</ele>
        <time>2021-02-20T08:00:13Z</time>
      </trkpt>
      <trkpt lat="43.55566" lon="-0.00021">
        <ele>147</ele>
        <time>2021-02-20T08:00:17Z</time>
      </trkpt>
      <trkpt lat="43.55572" lon="-0.00019">
        <ele>147</ele>
        <time>2021-02-20T08:00:21Z</time>
      </trkpt>
      <trkpt lat="43.55576" lon="-0.00019">
        <ele>147</ele>
        <time>2021-02-20T08:00:25Z</time>
      </trkpt>
      <trkpt lat="43.55582" lon="-0.00017">
        <ele>147</ele>
        <time>2021-02-20T08:00:30Z</time>
      </trkpt>
      <trkpt lat="43.55596" lon="-7.0E-5">
        <ele>147</ele>
        <time>2021-02-20T08:00:41Z</time>
      </trkpt>
      <trkpt lat="43.55629" lon="0.00036">
        <ele>147</ele>
        <time>2021-02-20T08:01:13Z</time>
      </trkpt>
      <trkpt lat="43.55642" lon="0.0006">
        <ele>148</ele>
        <time>2021-02-20T08:01:31Z</time>
      </trkpt>
      <trkpt lat="43.5567" lon="0.00099">
        <ele>149</ele>
        <time>2021-02-20T08:02:03Z</time>
      </trkpt>
      <trkpt lat="43.5568" lon="0.0011">
        <ele>149</ele>
        <time>2021-02-20T08:02:13Z</time>
      </trkpt>
      <trkpt lat="43.55682" lon="0.00115">
        <ele>149</ele>
        <time>2021-02-20T08:02:18Z</time>
      </trkpt>
      <trkpt lat="43.5569" lon="0.00123">
        <ele>149</ele>
        <time>2021-02-20T08:02:25Z</time>
      </trkpt>
      <trkpt lat="43.55696" lon="0.0013">
        <ele>149</ele>
        <time>2021-02-20T08:02:31Z</time>
      </trkpt>
      <trkpt lat="43.55701" lon="0.0014">
        <ele>149</ele>
        <time>2021-02-20T08:02:39Z</time>
      </trkpt>
      <trkpt lat="43.55708" lon="0.0015">
        <ele>149</ele>
        <time>2021-02-20T08:02:47Z</time>
      </trkpt>
      <trkpt lat="43.55718" lon="0.00166">
        <ele>149</ele>
        <time>2021-02-20T08:03:02Z</time>
      </trkpt>
      <trkpt lat="43.55734" lon="0.00184">
        <ele>147</ele>
        <time>2021-02-20T08:03:18Z</time>
      </trkpt>
      <trkpt lat="43.55744" lon="0.00189">
        <ele>147</ele>
        <time>2021-02-20T08:03:27Z</time>
      </trkpt>
      <trkpt lat="43.55749" lon="0.00189">
        <ele>147</ele>
        <time>2021-02-20T08:03:32Z</time>
      </trkpt>
      <trkpt lat="43.55753" lon="0.00187">
        <ele>147</ele>
        <time>2021-02-20T08:04:10Z</time>
      </trkpt>
      <trkpt lat="43.55753" lon="0.00174">
        <ele>147</ele>
        <time>2021-02-20T08:04:19Z</time>
      </trkpt>
      <trkpt lat="43.55755" lon="0.00169">
        <ele>147</ele>
        <time>2021-02-20T08:04:23Z</time>
      </trkpt>
      <trkpt lat="43.55755" lon="0.00161">
        <ele>147</ele>
        <time>2021-02-20T08:04:32Z</time>
      </trkpt>
      <trkpt lat="43.55759" lon="0.00153">
        <ele>147</ele>
        <time>2021-02-20T08:04:54Z</time>
      </trkpt>
      <trkpt lat="43.55762" lon="0.00147">
        <ele>147</ele>
        <time>2021-02-20T08:04:57Z</time>
      </trkpt>
      <trkpt lat="43.55765" lon="0.00144">
        <ele>148</ele>
        <time>2021-02-20T08:05:05Z</time>
      </trkpt>
      <trkpt lat="43.55766" lon="0.00143">
        <ele>147</ele>
        <time>2021-02-20T08:05:39Z</time>
      </trkpt>
      <trkpt lat="43.55771" lon="0.00144">
        <ele>147</ele>
        <time>2021-02-20T08:06:27Z</time>
      </trkpt>
      <trkpt lat="43.55776" lon="0.0014">
        <ele>147</ele>
        <time>2021-02-20T08:06:30Z</time>
      </trkpt>
      <trkpt lat="43.55782" lon="0.00138">
        <ele>145</ele>
        <time>2021-02-20T08:06:39Z</time>
      </trkpt>
      <trkpt lat="43.55787" lon="0.00138">
        <ele>145</ele>
        <time>2021-02-20T08:06:44Z</time>
      </trkpt>
      <trkpt lat="43.55797" lon="0.00132">
        <ele>144</ele>
        <time>2021-02-20T08:06:53Z</time>
      </trkpt>
      <trkpt lat="43.55803" lon="0.0013">
        <ele>144</ele>
        <time>2021-02-20T08:06:57Z</time>
      </trkpt>
      <trkpt lat="43.55816" lon="0.00124">
        <ele>144</ele>
        <time>2021-02-20T08:07:10Z</time>
      </trkpt>
      <trkpt lat="43.55822" lon="0.00124">
        <ele>144</ele>
        <time>2021-02-20T08:07:14Z</time>
      </trkpt>
      <trkpt lat="43.55838" lon="0.00117">
        <ele>144</ele>
        <time>2021-02-20T08:07:27Z</time>
      </trkpt>
      <trkpt lat="43.55844" lon="0.00112">
        <ele>144</ele>
        <time>2021-02-20T08:07:35Z</time>
      </trkpt>
      <trkpt lat="43.55856" lon="0.00107">
        <ele>144</ele>
        <time>2021-02-20T08:07:43Z</time>
      </trkpt>
      <trkpt lat="43.55868" lon="0.00111">
        <ele>144</ele>
        <time>2021-02-20T08:07:54Z</time>
      </trkpt>
      <trkpt lat="43.55879" lon="0.00116">
        <ele>144</ele>
        <time>2021-02-20T08:08:02Z</time>
      </trkpt>
      <trkpt lat="43.55903" lon="0.00119">
        <ele>144</ele>
        <time>2021-02-20T08:08:18Z</time>
      </trkpt>
      <trkpt lat="43.55922" lon="0.00113">
        <ele>144</ele>
        <time>2021-02-20T08:08:34Z</time>
      </trkpt>
      <trkpt lat="43.55933" lon="0.00115">
        <ele>144</ele>
        <time>2021-02-20T08:08:43Z</time>
      </trkpt>
      <trkpt lat="43.55944" lon="0.00111">
        <ele>144</ele>
        <time>2021-02-20T08:08:54Z</time>
      </trkpt>
      <trkpt lat="43.55955" lon="0.00112">
        <ele>144</ele>
        <time>2021-02-20T08:09:02Z</time>
      </trkpt>
      <trkpt lat="43.5596" lon="0.00108">
        <ele>144</ele>
        <time>2021-02-20T08:09:06Z</time>
      </trkpt>
      <trkpt lat="43.5597" lon="0.00106">
        <ele>144</ele>
        <time>2021-02-20T08:09:14Z</time>
      </trkpt>
      <trkpt lat="43.55988" lon="0.00088">
        <ele>144</ele>
        <time>2021-02-20T08:09:31Z</time>
      </trkpt>
      <trkpt lat="43.55996" lon="0.00077">
        <ele>144</ele>
        <time>2021-02-20T08:09:40Z</time>
      </trkpt>
      <trkpt lat="43.56001" lon="0.00072">
        <ele>144</ele>
        <time>2021-02-20T08:09:45Z</time>
      </trkpt>
      <trkpt lat="43.56007" lon="0.0007">
        <ele>144</ele>
        <time>2021-02-20T08:09:49Z</time>
      </trkpt>
      <trkpt lat="43.56013" lon="0.0007">
        <ele>144</ele>
        <time>2021-02-20T08:09:54Z</time>
      </trkpt>
      <trkpt lat="43.56027" lon="0.00072">
        <ele>144</ele>
        <time>2021-02-20T08:10:05Z</time>
      </trkpt>
      <trkpt lat="43.56033" lon="0.00066">
        <ele>145</ele>
        <time>2021-02-20T08:10:11Z</time>
      </trkpt>
      <trkpt lat="43.56063" lon="0.00054">
        <ele>145</ele>
        <time>2021-02-20T08:10:35Z</time>
      </trkpt>
      <trkpt lat="43.56069" lon="0.00055">
        <ele>145</ele>
        <time>2021-02-20T08:10:39Z</time>
      </trkpt>
      <trkpt lat="43.56076" lon="0.00053">
        <ele>145</ele>
        <time>2021-02-20T08:10:44Z</time>
      </trkpt>
      <trkpt lat="43.56108" lon="0.00051">
        <ele>145</ele>
        <time>2021-02-20T08:11:07Z</time>
      </trkpt>
      <trkpt lat="43.56113" lon="0.00053">
        <ele>145</ele>
        <time>2021-02-20T08:11:11Z</time>
      </trkpt>
      <trkpt lat="43.56121" lon="0.00061">
        <ele>145</ele>
        <time>2021-02-20T08:11:38Z</time>
      </trkpt>
      <trkpt lat="43.56128" lon="0.00064">
        <ele>145</ele>
        <time>2021-02-20T08:11:46Z</time>
      </trkpt>
      <trkpt lat="43.56136" lon="0.00065">
        <ele>145</ele>
        <time>2021-02-20T08:11:54Z</time>
      </trkpt>
      <trkpt lat="43.56143" lon="0.00064">
        <ele>145</ele>
        <time>2021-02-20T08:11:59Z</time>
      </trkpt>
      <trkpt lat="43.56147" lon="0.0006">
        <ele>145</ele>
        <time>2021-02-20T08:12:03Z</time>
      </trkpt>
      <trkpt lat="43.56151" lon="0.00055">
        <ele>145</ele>
        <time>2021-02-20T08:12:08Z</time>
      </trkpt>
      <trkpt lat="43.56156" lon="0.00053">
        <ele>144</ele>
        <time>2021-02-20T08:12:16Z</time>
      </trkpt>
      <trkpt lat="43.56168" lon="0.00049">
        <ele>145</ele>
        <time>2021-02-20T08:12:28Z</time>
      </trkpt>
      <trkpt lat="43.56179" lon="0.00048">
        <ele>145</ele>
        <time>2021-02-20T08:12:35Z</time>
      </trkpt>
      <trkpt lat="43.56196" lon="0.00054">
        <ele>144</ele>
        <time>2021-02-20T08:12:53Z</time>
      </trkpt>
      <trkpt lat="43.56202" lon="0.00057">
        <ele>144</ele>
        <time>2021-02-20T08:12:57Z</time>
      </trkpt>
      <trkpt lat="43.56208" lon="0.00059">
        <ele>144</ele>
        <time>2021-02-20T08:13:03Z</time>
      </trkpt>
      <trkpt lat="43.56226" lon="0.00055">
        <ele>145</ele>
        <time>2021-02-20T08:13:19Z</time>
      </trkpt>
      <trkpt lat="43.5626" lon="0.00028">
        <ele>144</ele>
        <time>2021-02-20T08:13:49Z</time>
      </trkpt>
      <trkpt lat="43.56266" lon="0.00027">
        <ele>144</ele>
        <time>2021-02-20T08:13:57Z</time>
      </trkpt>
      <trkpt lat="43.5627" lon="0.00023">
        <ele>143</ele>
        <time>2021-02-20T08:14:03Z</time>
      </trkpt>
      <trkpt lat="43.56288" lon="0.00014">
        <ele>142</ele>
        <time>2021-02-20T08:14:18Z</time>
      </trkpt>
      <trkpt lat="43.56312" lon="0.0002">
        <ele>141</ele>
        <time>2021-02-20T08:14:39Z</time>
      </trkpt>
      <trkpt lat="43.56317" lon="0.00025">
        <ele>141</ele>
        <time>2021-02-20T08:14:43Z</time>
      </trkpt>
      <trkpt lat="43.5632" lon="0.00031">
        <ele>141</ele>
        <time>2021-02-20T08:14:45Z</time>
      </trkpt>
      <trkpt lat="43.56324" lon="0.00034">
        <ele>141</ele>
        <time>2021-02-20T08:14:50Z</time>
      </trkpt>
      <trkpt lat="43.56329" lon="0.00041">
        <ele>141</ele>
        <time>2021-02-20T08:15:05Z</time>
      </trkpt>
      <trkpt lat="43.56334" lon="0.00034">
        <ele>142</ele>
        <time>2021-02-20T08:15:21Z</time>
      </trkpt>
      <trkpt lat="43.5634" lon="0.00031">
        <ele>142</ele>
        <time>2021-02-20T08:15:25Z</time>
      </trkpt>
      <trkpt lat="43.56351" lon="0.00028">
        <ele>142</ele>
        <time>2021-02-20T08:15:34Z</time>
      </trkpt>
      <trkpt lat="43.56378" lon="9.0E-5">
        <ele>141</ele>
        <time>2021-02-20T08:15:57Z</time>
      </trkpt>
      <trkpt lat="43.56383" lon="8.0E-5">
        <ele>140</ele>
        <time>2021-02-20T08:16:02Z</time>
      </trkpt>
      <trkpt lat="43.56388" lon="9.0E-5">
        <ele>140</ele>
        <time>2021-02-20T08:16:06Z</time>
      </trkpt>
      <trkpt lat="43.56392" lon="0.00014">
        <ele>139</ele>
        <time>2021-02-20T08:16:09Z</time>
      </trkpt>
      <trkpt lat="43.56393" lon="0.00018">
        <ele>140</ele>
        <time>2021-02-20T08:16:14Z</time>
      </trkpt>
      <trkpt lat="43.56397" lon="0.00024">
        <ele>140</ele>
        <time>2021-02-20T08:16:30Z</time>
      </trkpt>
      <trkpt lat="43.56405" lon="0.00022">
        <ele>138</ele>
        <time>2021-02-20T08:16:41Z</time>
      </trkpt>
      <trkpt lat="43.56409" lon="0.00027">
        <ele>138</ele>
        <time>2021-02-20T08:16:47Z</time>
      </trkpt>
      <trkpt lat="43.56411" lon="0.00033">
        <ele>138</ele>
        <time>2021-02-20T08:16:51Z</time>
      </trkpt>
      <trkpt lat="43.56417" lon="0.00056">
        <ele>138</ele>
        <time>2021-02-20T08:17:05Z</time>
      </trkpt>
      <trkpt lat="43.5642" lon="0.00061">
        <ele>138</ele>
        <time>2021-02-20T08:17:08Z</time>
      </trkpt>
      <trkpt lat="43.56422" lon="0.00068">
        <ele>138</ele>
        <time>2021-02-20T08:17:12Z</time>
      </trkpt>
      <trkpt lat="43.56423" lon="0.00079">
        <ele>138</ele>
        <time>2021-02-20T08:17:20Z</time>
      </trkpt>
      <trkpt lat="43.56425" lon="0.00089">
        <ele>138</ele>
        <time>2021-02-20T08:17:25Z</time>
      </trkpt>
      <trkpt lat="43.56429" lon="0.00102">
        <ele>138</ele>
        <time>2021-02-20T08:17:33Z</time>
      </trkpt>
      <trkpt lat="43.5643" lon="0.00108">
        <ele>138</ele>
        <time>2021-02-20T08:17:37Z</time>
      </trkpt>
      <trkpt lat="43.5643" lon="0.00115">
        <ele>138</ele>
        <time>2021-02-20T08:17:42Z</time>
      </trkpt>
      <trkpt lat="43.56437" lon="0.00116">
        <ele>138</ele>
        <time>2021-02-20T08:17:54Z</time>
      </trkpt>
      <trkpt lat="43.5646" lon="0.00163">
        <ele>139</ele>
        <time>2021-02-20T08:18:28Z</time>
      </trkpt>
      <trkpt lat="43.56464" lon="0.00167">
        <ele>139</ele>
        <time>2021-02-20T08:18:32Z</time>
      </trkpt>
      <trkpt lat="43.5647" lon="0.00179">
        <ele>139</ele>
        <time>2021-02-20T08:18:42Z</time>
      </trkpt>
      <trkpt lat="43.56477" lon="0.0019">
        <ele>139</ele>
        <time>2021-02-20T08:18:51Z</time>
      </trkpt>
      <trkpt lat="43.56483" lon="0.00207">
        <ele>139</ele>
        <time>2021-02-20T08:19:00Z</time>
      </trkpt>
      <trkpt lat="43.56506" lon="0.00247">
        <ele>139</ele>
        <time>2021-02-20T08:19:31Z</time>
      </trkpt>
      <trkpt lat="43.5651" lon="0.00253">
        <ele>139</ele>
        <time>2021-02-20T08:19:36Z</time>
      </trkpt>
      <trkpt lat="43.56516" lon="0.00267">
        <ele>139</ele>
        <time>2021-02-20T08:19:46Z</time>
      </trkpt>
      <trkpt lat="43.56539" lon="0.00291">
        <ele>139</ele>
        <time>2021-02-20T08:20:08Z</time>
      </trkpt>
      <trkpt lat="43.56548" lon="0.00293">
        <ele>139</ele>
        <time>2021-02-20T08:20:17Z</time>
      </trkpt>
      <trkpt lat="43.56552" lon="0.00296">
        <ele>139</ele>
        <time>2021-02-20T08:20:22Z</time>
      </trkpt>
      <trkpt lat="43.56558" lon="0.00296">
        <ele>140</ele>
        <time>2021-02-20T08:20:31Z</time>
      </trkpt>
      <trkpt lat="43.56567" lon="0.00291">
        <ele>140</ele>
        <time>2021-02-20T08:20:44Z</time>
      </trkpt>
      <trkpt lat="43.56573" lon="0.00286">
        <ele>140</ele>
        <time>2021-02-20T08:20:51Z</time>
      </trkpt>
      <trkpt lat="43.56579" lon="0.00283">
        <ele>139</ele>
        <time>2021-02-20T08:20:56Z</time>
      </trkpt>
      <trkpt lat="43.56584" lon="0.00276">
        <ele>140</ele>
        <time>2021-02-20T08:21:04Z</time>
      </trkpt>
      <trkpt lat="43.56589" lon="0.00272">
        <ele>139</ele>
        <time>2021-02-20T08:21:09Z</time>
      </trkpt>
      <trkpt lat="43.56596" lon="0.0027">
        <ele>139</ele>
        <time>2021-02-20T08:21:15Z</time>
      </trkpt>
      <trkpt lat="43.56602" lon="0.00266">
        <ele>140</ele>
        <time>2021-02-20T08:21:20Z</time>
      </trkpt>
      <trkpt lat="43.56605" lon="0.00261">
        <ele>140</ele>
        <time>2021-02-20T08:21:26Z</time>
      </trkpt>
      <trkpt lat="43.56611" lon="0.00256">
        <ele>140</ele>
        <time>2021-02-20T08:21:34Z</time>
      </trkpt>
      <trkpt lat="43.56627" lon="0.00249">
        <ele>140</ele>
        <time>2021-02-20T08:21:47Z</time>
      </trkpt>
      <trkpt lat="43.56644" lon="0.00247">
        <ele>140</ele>
        <time>2021-02-20T08:22:02Z</time>
      </trkpt>
      <trkpt lat="43.5667" lon="0.0025">
        <ele>140</ele>
        <time>2021-02-20T08:22:21Z</time>
      </trkpt>
      <trkpt lat="43.56676" lon="0.00249">
        <ele>140</ele>
        <time>2021-02-20T08:22:26Z</time>
      </trkpt>
      <trkpt lat="43.5668" lon="0.00253">
        <ele>141</ele>
        <time>2021-02-20T08:22:32Z</time>
      </trkpt>
      <trkpt lat="43.56688" lon="0.00244">
        <ele>140</ele>
        <time>2021-02-20T08:22:58Z</time>
      </trkpt>
      <trkpt lat="43.56699" lon="0.00238">
        <ele>140</ele>
        <time>2021-02-20T08:23:09Z</time>
      </trkpt>
      <trkpt lat="43.56724" lon="0.00213">
        <ele>139</ele>
        <time>2021-02-20T08:23:39Z</time>
      </trkpt>
      <trkpt lat="43.56733" lon="0.00213">
        <ele>139</ele>
        <time>2021-02-20T08:23:55Z</time>
      </trkpt>
      <trkpt lat="43.56738" lon="0.00209">
        <ele>139</ele>
        <time>2021-02-20T08:24:01Z</time>
      </trkpt>
      <trkpt lat="43.56742" lon="0.00204">
        <ele>139</ele>
        <time>2021-02-20T08:24:04Z</time>
      </trkpt>
      <trkpt lat="43.56756" lon="0.00195">
        <ele>139</ele>
        <time>2021-02-20T08:24:18Z</time>
      </trkpt>
      <trkpt lat="43.56759" lon="0.0019">
        <ele>139</ele>
        <time>2021-02-20T08:24:24Z</time>
      </trkpt>
      <trkpt lat="43.56763" lon="0.00192">
        <ele>139</ele>
        <time>2021-02-20T08:24:41Z</time>
      </trkpt>
      <trkpt lat="43.56762" lon="0.00185">
        <ele>140</ele>
        <time>2021-02-20T08:25:02Z</time>
      </trkpt>
      <trkpt lat="43.56769" lon="0.00189">
        <ele>140</ele>
        <time>2021-02-20T08:25:26Z</time>
      </trkpt>
      <trkpt lat="43.56777" lon="0.00186">
        <ele>139</ele>
        <time>2021-02-20T08:25:38Z</time>
      </trkpt>
      <trkpt lat="43.56779" lon="0.0018">
        <ele>139</ele>
        <time>2021-02-20T08:25:46Z</time>
      </trkpt>
      <trkpt lat="43.56798" lon="0.00167">
        <ele>139</ele>
        <time>2021-02-20T08:26:06Z</time>
      </trkpt>
      <trkpt lat="43.56804" lon="0.00165">
        <ele>139</ele>
        <time>2021-02-20T08:26:11Z</time>
      </trkpt>
      <trkpt lat="43.56815" lon="0.00158">
        <ele>139</ele>
        <time>2021-02-20T08:26:20Z</time>
      </trkpt>
      <trkpt lat="43.56821" lon="0.00156">
        <ele>139</ele>
        <time>2021-02-20T08:26:25Z</time>
      </trkpt>
      <trkpt lat="43.56832" lon="0.00142">
        <ele>139</ele>
        <time>2021-02-20T08:26:39Z</time>
      </trkpt>
      <trkpt lat="43.56842" lon="0.00136">
        <ele>139</ele>
        <time>2021-02-20T08:26:47Z</time>
      </trkpt>
      <trkpt lat="43.56847" lon="0.00131">
        <ele>140</ele>
        <time>2021-02-20T08:26:52Z</time>
      </trkpt>
      <trkpt lat="43.56852" lon="0.00128">
        <ele>140</ele>
        <time>2021-02-20T08:26:56Z</time>
      </trkpt>
      <trkpt lat="43.56857" lon="0.00129">
        <ele>140</ele>
        <time>2021-02-20T08:27:01Z</time>
      </trkpt>
      <trkpt lat="43.56862" lon="0.0013">
        <ele>140</ele>
        <time>2021-02-20T08:27:06Z</time>
      </trkpt>
      <trkpt lat="43.56874" lon="0.00139">
        <ele>140</ele>
        <time>2021-02-20T08:27:18Z</time>
      </trkpt>
      <trkpt lat="43.5688" lon="0.0014">
        <ele>139</ele>
        <time>2021-02-20T08:27:23Z</time>
      </trkpt>
      <trkpt lat="43.56886" lon="0.00143">
        <ele>139</ele>
        <time>2021-02-20T08:27:29Z</time>
      </trkpt>
      <trkpt lat="43.56893" lon="0.0015">
        <ele>139</ele>
        <time>2021-02-20T08:27:37Z</time>
      </trkpt>
      <trkpt lat="43.56904" lon="0.00152">
        <ele>139</ele>
        <time>2021-02-20T08:27:47Z</time>
      </trkpt>
      <trkpt lat="43.56911" lon="0.00156">
        <ele>140</ele>
        <time>2021-02-20T08:28:20Z</time>
      </trkpt>
      <trkpt lat="43.56915" lon="0.00151">
        <ele>139</ele>
        <time>2021-02-20T08:28:51Z</time>
      </trkpt>
      <trkpt lat="43.56918" lon="0.00157">
        <ele>139</ele>
        <time>2021-02-20T08:29:50Z</time>
      </trkpt>
      <trkpt lat="43.56911" lon="0.00164">
        <ele>139</ele>
        <time>2021-02-20T08:30:08Z</time>
      </trkpt>
      <trkpt lat="43.56918" lon="0.00166">
        <ele>138</ele>
        <time>2021-02-20T08:30:25Z</time>
      </trkpt>
      <trkpt lat="43.56928" lon="0.00174">
        <ele>138</ele>
        <time>2021-02-20T08:30:37Z</time>
      </trkpt>
      <trkpt lat="43.56938" lon="0.00189">
        <ele>139</ele>
        <time>2021-02-20T08:30:49Z</time>
      </trkpt>
      <trkpt lat="43.56943" lon="0.00194">
        <ele>139</ele>
        <time>2021-02-20T08:30:57Z</time>
      </trkpt>
      <trkpt lat="43.56955" lon="0.002">
        <ele>139</ele>
        <time>2021-02-20T08:31:08Z</time>
      </trkpt>
      <trkpt lat="43.5696" lon="0.00206">
        <ele>139</ele>
        <time>2021-02-20T08:31:14Z</time>
      </trkpt>
      <trkpt lat="43.56964" lon="0.00211">
        <ele>139</ele>
        <time>2021-02-20T08:31:18Z</time>
      </trkpt>
      <trkpt lat="43.56972" lon="0.0023">
        <ele>141</ele>
        <time>2021-02-20T08:31:33Z</time>
      </trkpt>
      <trkpt lat="43.56978" lon="0.00245">
        <ele>142</ele>
        <time>2021-02-20T08:31:46Z</time>
      </trkpt>
      <trkpt lat="43.56972" lon="0.00263">
        <ele>142</ele>
        <time>2021-02-20T08:31:59Z</time>
      </trkpt>
      <trkpt lat="43.56961" lon="0.00265">
        <ele>142</ele>
        <time>2021-02-20T08:32:14Z</time>
      </trkpt>
      <trkpt lat="43.56955" lon="0.00278">
        <ele>141</ele>
        <time>2021-02-20T08:32:27Z</time>
      </trkpt>
      <trkpt lat="43.56959" lon="0.00281">
        <ele>142</ele>
        <time>2021-02-20T08:33:07Z</time>
      </trkpt>
      <trkpt lat="43.56953" lon="0.00289">
        <ele>141</ele>
        <time>2021-02-20T08:34:18Z</time>
      </trkpt>
      <trkpt lat="43.56949" lon="0.00282">
        <ele>140</ele>
        <time>2021-02-20T08:34:30Z</time>
      </trkpt>
      <trkpt lat="43.56949" lon="0.00273">
        <ele>140</ele>
        <time>2021-02-20T08:34:35Z</time>
      </trkpt>
      <trkpt lat="43.56952" lon="0.00266">
        <ele>140</ele>
        <time>2021-02-20T08:34:40Z</time>
      </trkpt>
      <trkpt lat="43.56959" lon="0.00261">
        <ele>140</ele>
        <time>2021-02-20T08:34:48Z</time>
      </trkpt>
      <trkpt lat="43.56972" lon="0.00263">
        <ele>140</ele>
        <time>2021-02-20T08:35:00Z</time>
      </trkpt>
      <trkpt lat="43.56976" lon="0.00256">
        <ele>140</ele>
        <time>2021-02-20T08:35:06Z</time>
      </trkpt>
      <trkpt lat="43.56978" lon="0.00248">
        <ele>140</ele>
        <time>2021-02-20T08:35:12Z</time>
      </trkpt>
      <trkpt lat="43.56976" lon="0.00241">
        <ele>140</ele>
        <time>2021-02-20T08:35:17Z</time>
      </trkpt>
      <trkpt lat="43.5697" lon="0.00235">
        <ele>140</ele>
        <time>2021-02-20T08:35:23Z</time>
      </trkpt>
      <trkpt lat="43.56967" lon="0.00218">
        <ele>139</ele>
        <time>2021-02-20T08:35:36Z</time>
      </trkpt>
      <trkpt lat="43.56964" lon="0.00209">
        <ele>138</ele>
        <time>2021-02-20T08:35:45Z</time>
      </trkpt>
      <trkpt lat="43.56954" lon="0.002">
        <ele>137</ele>
        <time>2021-02-20T08:35:54Z</time>
      </trkpt>
      <trkpt lat="43.56947" lon="0.00201">
        <ele>136</ele>
        <time>2021-02-20T08:36:00Z</time>
      </trkpt>
      <trkpt lat="43.56937" lon="0.00194">
        <ele>136</ele>
        <time>2021-02-20T08:36:10Z</time>
      </trkpt>
      <trkpt lat="43.56933" lon="0.00188">
        <ele>136</ele>
        <time>2021-02-20T08:36:13Z</time>
      </trkpt>
      <trkpt lat="43.56931" lon="0.00181">
        <ele>136</ele>
        <time>2021-02-20T08:36:18Z</time>
      </trkpt>
      <trkpt lat="43.56928" lon="0.00175">
        <ele>136</ele>
        <time>2021-02-20T08:36:22Z</time>
      </trkpt>
      <trkpt lat="43.56924" lon="0.00172">
        <ele>136</ele>
        <time>2021-02-20T08:36:26Z</time>
      </trkpt>
      <trkpt lat="43.56921" lon="0.00167">
        <ele>136</ele>
        <time>2021-02-20T08:36:34Z</time>
      </trkpt>
      <trkpt lat="43.56923" lon="0.00172">
        <ele>136</ele>
        <time>2021-02-20T08:37:01Z</time>
      </trkpt>
      <trkpt lat="43.56928" lon="0.00176">
        <ele>136</ele>
        <time>2021-02-20T08:37:05Z</time>
      </trkpt>
      <trkpt lat="43.56935" lon="0.00185">
        <ele>136</ele>
        <time>2021-02-20T08:37:13Z</time>
      </trkpt>
      <trkpt lat="43.56938" lon="0.00192">
        <ele>137</ele>
        <time>2021-02-20T08:37:20Z</time>
      </trkpt>
      <trkpt lat="43.56943" lon="0.00198">
        <ele>137</ele>
        <time>2021-02-20T08:37:28Z</time>
      </trkpt>
      <trkpt lat="43.56957" lon="0.00205">
        <ele>137</ele>
        <time>2021-02-20T08:37:43Z</time>
      </trkpt>
      <trkpt lat="43.56969" lon="0.00222">
        <ele>139</ele>
        <time>2021-02-20T08:38:06Z</time>
      </trkpt>
      <trkpt lat="43.56972" lon="0.00228">
        <ele>140</ele>
        <time>2021-02-20T08:38:14Z</time>
      </trkpt>
      <trkpt lat="43.56973" lon="0.00234">
        <ele>141</ele>
        <time>2021-02-20T08:38:19Z</time>
      </trkpt>
      <trkpt lat="43.56976" lon="0.0024">
        <ele>141</ele>
        <time>2021-02-20T08:38:24Z</time>
      </trkpt>
      <trkpt lat="43.56978" lon="0.00249">
        <ele>141</ele>
        <time>2021-02-20T08:38:32Z</time>
      </trkpt>
      <trkpt lat="43.56976" lon="0.00257">
        <ele>141</ele>
        <time>2021-02-20T08:38:37Z</time>
      </trkpt>
      <trkpt lat="43.56974" lon="0.00263">
        <ele>141</ele>
        <time>2021-02-20T08:38:42Z</time>
      </trkpt>
      <trkpt lat="43.56968" lon="0.00265">
        <ele>141</ele>
        <time>2021-02-20T08:38:46Z</time>
      </trkpt>
      <trkpt lat="43.56963" lon="0.00264">
        <ele>141</ele>
        <time>2021-02-20T08:38:50Z</time>
      </trkpt>
      <trkpt lat="43.56954" lon="0.00264">
        <ele>141</ele>
        <time>2021-02-20T08:38:59Z</time>
      </trkpt>
      <trkpt lat="43.5695" lon="0.00267">
        <ele>141</ele>
        <time>2021-02-20T08:39:03Z</time>
      </trkpt>
      <trkpt lat="43.56947" lon="0.00274">
        <ele>141</ele>
        <time>2021-02-20T08:39:08Z</time>
      </trkpt>
      <trkpt lat="43.56948" lon="0.00282">
        <ele>141</ele>
        <time>2021-02-20T08:39:14Z</time>
      </trkpt>
      <trkpt lat="43.56952" lon="0.0029">
        <ele>141</ele>
        <time>2021-02-20T08:39:21Z</time>
      </trkpt>
      <trkpt lat="43.56957" lon="0.00286">
        <ele>141</ele>
        <time>2021-02-20T08:39:35Z</time>
      </trkpt>
      <trkpt lat="43.56963" lon="0.00275">
        <ele>142</ele>
        <time>2021-02-20T08:39:45Z</time>
      </trkpt>
      <trkpt lat="43.56969" lon="0.00272">
        <ele>142</ele>
        <time>2021-02-20T08:39:51Z</time>
      </trkpt>
      <trkpt lat="43.56974" lon="0.00272">
        <ele>143</ele>
        <time>2021-02-20T08:39:56Z</time>
      </trkpt>
      <trkpt lat="43.56979" lon="0.00269">
        <ele>143</ele>
        <time>2021-02-20T08:40:01Z</time>
      </trkpt>
      <trkpt lat="43.56989" lon="0.00267">
        <ele>145</ele>
        <time>2021-02-20T08:40:11Z</time>
      </trkpt>
      <trkpt lat="43.56999" lon="0.00261">
        <ele>145</ele>
        <time>2021-02-20T08:40:23Z</time>
      </trkpt>
      <trkpt lat="43.57003" lon="0.00255">
        <ele>145</ele>
        <time>2021-02-20T08:40:30Z</time>
      </trkpt>
      <trkpt lat="43.57025" lon="0.00237">
        <ele>143</ele>
        <time>2021-02-20T08:40:56Z</time>
      </trkpt>
      <trkpt lat="43.57029" lon="0.00234">
        <ele>142</ele>
        <time>2021-02-20T08:41:01Z</time>
      </trkpt>
      <trkpt lat="43.57035" lon="0.00237">
        <ele>141</ele>
        <time>2021-02-20T08:41:07Z</time>
      </trkpt>
      <trkpt lat="43.57041" lon="0.00247">
        <ele>141</ele>
        <time>2021-02-20T08:41:14Z</time>
      </trkpt>
      <trkpt lat="43.57045" lon="0.00249">
        <ele>140</ele>
        <time>2021-02-20T08:41:40Z</time>
      </trkpt>
      <trkpt lat="43.57051" lon="0.00256">
        <ele>140</ele>
        <time>2021-02-20T08:41:52Z</time>
      </trkpt>
      <trkpt lat="43.57081" lon="0.00272">
        <ele>141</ele>
        <time>2021-02-20T08:42:21Z</time>
      </trkpt>
      <trkpt lat="43.57089" lon="0.00283">
        <ele>141</ele>
        <time>2021-02-20T08:42:30Z</time>
      </trkpt>
      <trkpt lat="43.57096" lon="0.00295">
        <ele>141</ele>
        <time>2021-02-20T08:42:39Z</time>
      </trkpt>
      <trkpt lat="43.57103" lon="0.00313">
        <ele>141</ele>
        <time>2021-02-20T08:42:50Z</time>
      </trkpt>
      <trkpt lat="43.57114" lon="0.00337">
        <ele>141</ele>
        <time>2021-02-20T08:43:08Z</time>
      </trkpt>
      <trkpt lat="43.57118" lon="0.00346">
        <ele>141</ele>
        <time>2021-02-20T08:44:18Z</time>
      </trkpt>
      <trkpt lat="43.57114" lon="0.00352">
        <ele>141</ele>
        <time>2021-02-20T08:44:24Z</time>
      </trkpt>
      <trkpt lat="43.57123" lon="0.0036">
        <ele>141</ele>
        <time>2021-02-20T08:44:36Z</time>
      </trkpt>
      <trkpt lat="43.57126" lon="0.00364">
        <ele>141</ele>
        <time>2021-02-20T08:44:39Z</time>
      </trkpt>
      <trkpt lat="43.5713" lon="0.00362">
        <ele>140</ele>
        <time>2021-02-20T08:44:50Z</time>
      </trkpt>
      <trkpt lat="43.57134" lon="0.00365">
        <ele>140</ele>
        <time>2021-02-20T08:44:56Z</time>
      </trkpt>
      <trkpt lat="43.57156" lon="0.00377">
        <ele>140</ele>
        <time>2021-02-20T08:45:39Z</time>
      </trkpt>
      <trkpt lat="43.57166" lon="0.00382">
        <ele>140</ele>
        <time>2021-02-20T08:45:46Z</time>
      </trkpt>
      <trkpt lat="43.57183" lon="0.00388">
        <ele>139</ele>
        <time>2021-02-20T08:46:00Z</time>
      </trkpt>
      <trkpt lat="43.57188" lon="0.0039">
        <ele>140</ele>
        <time>2021-02-20T08:46:04Z</time>
      </trkpt>
      <trkpt lat="43.57201" lon="0.00397">
        <ele>140</ele>
        <time>2021-02-20T08:46:16Z</time>
      </trkpt>
      <trkpt lat="43.57212" lon="0.00398">
        <ele>140</ele>
        <time>2021-02-20T08:46:24Z</time>
      </trkpt>
      <trkpt lat="43.57232" lon="0.0039">
        <ele>140</ele>
        <time>2021-02-20T08:46:42Z</time>
      </trkpt>
      <trkpt lat="43.57236" lon="0.00384">
        <ele>140</ele>
        <time>2021-02-20T08:46:46Z</time>
      </trkpt>
      <trkpt lat="43.5724" lon="0.00381">
        <ele>140</ele>
        <time>2021-02-20T08:46:50Z</time>
      </trkpt>
      <trkpt lat="43.57244" lon="0.00377">
        <ele>140</ele>
        <time>2021-02-20T08:46:54Z</time>
      </trkpt>
      <trkpt lat="43.57279" lon="0.00355">
        <ele>140</ele>
        <time>2021-02-20T08:47:29Z</time>
      </trkpt>
      <trkpt lat="43.5729" lon="0.00347">
        <ele>140</ele>
        <time>2021-02-20T08:47:42Z</time>
      </trkpt>
      <trkpt lat="43.57294" lon="0.00343">
        <ele>140</ele>
        <time>2021-02-20T08:47:45Z</time>
      </trkpt>
      <trkpt lat="43.57309" lon="0.00325">
        <ele>140</ele>
        <time>2021-02-20T08:48:01Z</time>
      </trkpt>
      <trkpt lat="43.57313" lon="0.00322">
        <ele>140</ele>
        <time>2021-02-20T08:48:04Z</time>
      </trkpt>
      <trkpt lat="43.57323" lon="0.00318">
        <ele>140</ele>
        <time>2021-02-20T08:48:11Z</time>
      </trkpt>
      <trkpt lat="43.57337" lon="0.00308">
        <ele>140</ele>
        <time>2021-02-20T08:48:28Z</time>
      </trkpt>
      <trkpt lat="43.57343" lon="0.00296">
        <ele>139</ele>
        <time>2021-02-20T08:48:37Z</time>
      </trkpt>
      <trkpt lat="43.57347" lon="0.00281">
        <ele>140</ele>
        <time>2021-02-20T08:48:46Z</time>
      </trkpt>
      <trkpt lat="43.57349" lon="0.00266">
        <ele>139</ele>
        <time>2021-02-20T08:48:55Z</time>
      </trkpt>
      <trkpt lat="43.57351" lon="0.0025">
        <ele>139</ele>
        <time>2021-02-20T08:49:05Z</time>
      </trkpt>
      <trkpt lat="43.5735" lon="0.00244">
        <ele>139</ele>
        <time>2021-02-20T08:49:09Z</time>
      </trkpt>
      <trkpt lat="43.57351" lon="0.00236">
        <ele>139</ele>
        <time>2021-02-20T08:49:15Z</time>
      </trkpt>
      <trkpt lat="43.57347" lon="0.00193">
        <ele>138</ele>
        <time>2021-02-20T08:49:38Z</time>
      </trkpt>
      <trkpt lat="43.57344" lon="0.00187">
        <ele>138</ele>
        <time>2021-02-20T08:49:43Z</time>
      </trkpt>
      <trkpt lat="43.57346" lon="0.00179">
        <ele>138</ele>
        <time>2021-02-20T08:49:48Z</time>
      </trkpt>
      <trkpt lat="43.57355" lon="0.00159">
        <ele>138</ele>
        <time>2021-02-20T08:49:59Z</time>
      </trkpt>
      <trkpt lat="43.57361" lon="0.0014">
        <ele>138</ele>
        <time>2021-02-20T08:50:12Z</time>
      </trkpt>
      <trkpt lat="43.57366" lon="0.00112">
        <ele>139</ele>
        <time>2021-02-20T08:50:27Z</time>
      </trkpt>
      <trkpt lat="43.57372" lon="0.00099">
        <ele>138</ele>
        <time>2021-02-20T08:50:36Z</time>
      </trkpt>
      <trkpt lat="43.57378" lon="0.00094">
        <ele>139</ele>
        <time>2021-02-20T08:50:52Z</time>
      </trkpt>
      <trkpt lat="43.57384" lon="0.00087">
        <ele>139</ele>
        <time>2021-02-20T08:51:35Z</time>
      </trkpt>
      <trkpt lat="43.57392" lon="0.00077">
        <ele>139</ele>
        <time>2021-02-20T08:51:45Z</time>
      </trkpt>
      <trkpt lat="43.57395" lon="0.0007">
        <ele>139</ele>
        <time>2021-02-20T08:51:51Z</time>
      </trkpt>
      <trkpt lat="43.57405" lon="0.0006">
        <ele>139</ele>
        <time>2021-02-20T08:52:03Z</time>
      </trkpt>
      <trkpt lat="43.57414" lon="0.00055">
        <ele>139</ele>
        <time>2021-02-20T08:52:14Z</time>
      </trkpt>
      <trkpt lat="43.57433" lon="0.00032">
        <ele>138</ele>
        <time>2021-02-20T08:52:39Z</time>
      </trkpt>
      <trkpt lat="43.57445" lon="0.00029">
        <ele>138</ele>
        <time>2021-02-20T08:52:51Z</time>
      </trkpt>
      <trkpt lat="43.57451" lon="0.00028">
        <ele>138</ele>
        <time>2021-02-20T08:52:57Z</time>
      </trkpt>
      <trkpt lat="43.57456" lon="0.00025">
        <ele>138</ele>
        <time>2021-02-20T08:53:02Z</time>
      </trkpt>
      <trkpt lat="43.57461" lon="0.00025">
        <ele>138</ele>
        <time>2021-02-20T08:53:07Z</time>
      </trkpt>
      <trkpt lat="43.57471" lon="0.0002">
        <ele>139</ele>
        <time>2021-02-20T08:53:15Z</time>
      </trkpt>
      <trkpt lat="43.57475" lon="0.00016">
        <ele>139</ele>
        <time>2021-02-20T08:53:26Z</time>
      </trkpt>
      <trkpt lat="43.57477" lon="0.00023">
        <ele>139</ele>
        <time>2021-02-20T08:53:30Z</time>
      </trkpt>
      <trkpt lat="43.57486" lon="0.00016">
        <ele>139</ele>
        <time>2021-02-20T08:53:43Z</time>
      </trkpt>
      <trkpt lat="43.57497" lon="0.00014">
        <ele>139</ele>
        <time>2021-02-20T08:53:54Z</time>
      </trkpt>
      <trkpt lat="43.57502" lon="0.00017">
        <ele>139</ele>
        <time>2021-02-20T08:53:58Z</time>
      </trkpt>
      <trkpt lat="43.57548" lon="0.00023">
        <ele>138</ele>
        <time>2021-02-20T08:54:33Z</time>
      </trkpt>
      <trkpt lat="43.57579" lon="0.00032">
        <ele>138</ele>
        <time>2021-02-20T08:54:59Z</time>
      </trkpt>
      <trkpt lat="43.57595" lon="0.00029">
        <ele>138</ele>
        <time>2021-02-20T08:55:12Z</time>
      </trkpt>
      <trkpt lat="43.57634" lon="0.00036">
        <ele>139</ele>
        <time>2021-02-20T08:55:44Z</time>
      </trkpt>
      <trkpt lat="43.5764" lon="0.00038">
        <ele>139</ele>
        <time>2021-02-20T08:55:49Z</time>
      </trkpt>
      <trkpt lat="43.57646" lon="0.00039">
        <ele>139</ele>
        <time>2021-02-20T08:55:54Z</time>
      </trkpt>
      <trkpt lat="43.57652" lon="0.00036">
        <ele>139</ele>
        <time>2021-02-20T08:55:59Z</time>
      </trkpt>
      <trkpt lat="43.57662" lon="0.00035">
        <ele>139</ele>
        <time>2021-02-20T08:56:05Z</time>
      </trkpt>
      <trkpt lat="43.57679" lon="0.00039">
        <ele>139</ele>
        <time>2021-02-20T08:56:21Z</time>
      </trkpt>
      <trkpt lat="43.57686" lon="0.00044">
        <ele>139</ele>
        <time>2021-02-20T08:56:27Z</time>
      </trkpt>
      <trkpt lat="43.57691" lon="0.00045">
        <ele>139</ele>
        <time>2021-02-20T08:56:31Z</time>
      </trkpt>
      <trkpt lat="43.57695" lon="0.00044">
        <ele>139</ele>
        <time>2021-02-20T08:56:35Z</time>
      </trkpt>
      <trkpt lat="43.57735" lon="0.00052">
        <ele>139</ele>
        <time>2021-02-20T08:57:07Z</time>
      </trkpt>
      <trkpt lat="43.5774" lon="0.00054">
        <ele>139</ele>
        <time>2021-02-20T08:57:10Z</time>
      </trkpt>
      <trkpt lat="43.57744" lon="0.00054">
        <ele>139</ele>
        <time>2021-02-20T08:57:14Z</time>
      </trkpt>
      <trkpt lat="43.57748" lon="0.00057">
        <ele>139</ele>
        <time>2021-02-20T08:57:18Z</time>
      </trkpt>
      <trkpt lat="43.57771" lon="0.0006">
        <ele>139</ele>
        <time>2021-02-20T08:57:35Z</time>
      </trkpt>
      <trkpt lat="43.57776" lon="0.00061">
        <ele>139</ele>
        <time>2021-02-20T08:57:39Z</time>
      </trkpt>
      <trkpt lat="43.57782" lon="0.00061">
        <ele>139</ele>
        <time>2021-02-20T08:57:43Z</time>
      </trkpt>
      <trkpt lat="43.57787" lon="0.00059">
        <ele>139</ele>
        <time>2021-02-20T08:57:47Z</time>
      </trkpt>
      <trkpt lat="43.57802" lon="0.00064">
        <ele>139</ele>
        <time>2021-02-20T08:57:58Z</time>
      </trkpt>
      <trkpt lat="43.57809" lon="0.00069">
        <ele>138</ele>
        <time>2021-02-20T08:58:05Z</time>
      </trkpt>
      <trkpt lat="43.57813" lon="0.00075">
        <ele>138</ele>
        <time>2021-02-20T08:58:08Z</time>
      </trkpt>
      <trkpt lat="43.5782" lon="0.0008">
        <ele>139</ele>
        <time>2021-02-20T08:58:15Z</time>
      </trkpt>
      <trkpt lat="43.57826" lon="0.00083">
        <ele>139</ele>
        <time>2021-02-20T08:58:22Z</time>
      </trkpt>
      <trkpt lat="43.57861" lon="0.00078">
        <ele>139</ele>
        <time>2021-02-20T08:58:53Z</time>
      </trkpt>
      <trkpt lat="43.57865" lon="0.00077">
        <ele>139</ele>
        <time>2021-02-20T08:58:58Z</time>
      </trkpt>
      <trkpt lat="43.57871" lon="0.00077">
        <ele>139</ele>
        <time>2021-02-20T08:59:02Z</time>
      </trkpt>
      <trkpt lat="43.57905" lon="0.0009">
        <ele>140</ele>
        <time>2021-02-20T08:59:33Z</time>
      </trkpt>
      <trkpt lat="43.5791" lon="0.00089">
        <ele>140</ele>
        <time>2021-02-20T08:59:38Z</time>
      </trkpt>
      <trkpt lat="43.57914" lon="0.00087">
        <ele>140</ele>
        <time>2021-02-20T08:59:43Z</time>
      </trkpt>
      <trkpt lat="43.57922" lon="0.00081">
        <ele>142</ele>
        <time>2021-02-20T08:59:52Z</time>
      </trkpt>
      <trkpt lat="43.57941" lon="0.00075">
        <ele>142</ele>
        <time>2021-02-20T09:00:08Z</time>
      </trkpt>
      <trkpt lat="43.57978" lon="0.00053">
        <ele>142</ele>
        <time>2021-02-20T09:00:40Z</time>
      </trkpt>
      <trkpt lat="43.58001" lon="0.00038">
        <ele>142</ele>
        <time>2021-02-20T09:01:01Z</time>
      </trkpt>
      <trkpt lat="43.58005" lon="0.00034">
        <ele>142</ele>
        <time>2021-02-20T09:01:05Z</time>
      </trkpt>
      <trkpt lat="43.58009" lon="0.0003">
        <ele>142</ele>
        <time>2021-02-20T09:01:10Z</time>
      </trkpt>
      <trkpt lat="43.58021" lon="0.00021">
        <ele>141</ele>
        <time>2021-02-20T09:01:21Z</time>
      </trkpt>
      <trkpt lat="43.58031" lon="0.00018">
        <ele>140</ele>
        <time>2021-02-20T09:01:32Z</time>
      </trkpt>
      <trkpt lat="43.58035" lon="0.00023">
        <ele>140</ele>
        <time>2021-02-20T09:01:42Z</time>
      </trkpt>
      <trkpt lat="43.58039" lon="0.00028">
        <ele>139</ele>
        <time>2021-02-20T09:02:19Z</time>
      </trkpt>
      <trkpt lat="43.58045" lon="0.00028">
        <ele>139</ele>
        <time>2021-02-20T09:02:30Z</time>
      </trkpt>
      <trkpt lat="43.5805" lon="0.00025">
        <ele>138</ele>
        <time>2021-02-20T09:02:48Z</time>
      </trkpt>
      <trkpt lat="43.58055" lon="0.00026">
        <ele>138</ele>
        <time>2021-02-20T09:02:52Z</time>
      </trkpt>
      <trkpt lat="43.58057" lon="0.00031">
        <ele>138</ele>
        <time>2021-02-20T09:02:56Z</time>
      </trkpt>
      <trkpt lat="43.58059" lon="0.00038">
        <ele>138</ele>
        <time>2021-02-20T09:03:00Z</time>
      </trkpt>
      <trkpt lat="43.58062" lon="0.00057">
        <ele>139</ele>
        <time>2021-02-20T09:03:21Z</time>
      </trkpt>
      <trkpt lat="43.58055" lon="0.00054">
        <ele>138</ele>
        <time>2021-02-20T09:03:34Z</time>
      </trkpt>
      <trkpt lat="43.58054" lon="0.00048">
        <ele>139</ele>
        <time>2021-02-20T09:03:38Z</time>
      </trkpt>
      <trkpt lat="43.58055" lon="0.00042">
        <ele>138</ele>
        <time>2021-02-20T09:03:41Z</time>
      </trkpt>
      <trkpt lat="43.58053" lon="0.00032">
        <ele>139</ele>
        <time>2021-02-20T09:03:47Z</time>
      </trkpt>
      <trkpt lat="43.58058" lon="0.0002">
        <ele>139</ele>
        <time>2021-02-20T09:03:56Z</time>
      </trkpt>
      <trkpt lat="43.5806" lon="0.00014">
        <ele>139</ele>
        <time>2021-02-20T09:03:59Z</time>
      </trkpt>
      <trkpt lat="43.58062" lon="8.0E-5">
        <ele>139</ele>
        <time>2021-02-20T09:04:03Z</time>
      </trkpt>
      <trkpt lat="43.58079" lon="-0">
        <ele>139</ele>
        <time>2021-02-20T09:04:17Z</time>
      </trkpt>
      <trkpt lat="43.58097" lon="-2.0E-5">
        <ele>139</ele>
        <time>2021-02-20T09:04:32Z</time>
      </trkpt>
      <trkpt lat="43.58113" lon="-0.00027">
        <ele>139</ele>
        <time>2021-02-20T09:04:54Z</time>
      </trkpt>
      <trkpt lat="43.58118" lon="-0.00026">
        <ele>139</ele>
        <time>2021-02-20T09:04:57Z</time>
      </trkpt>
      <trkpt lat="43.58124" lon="-0.00024">
        <ele>138</ele>
        <time>2021-02-20T09:05:13Z</time>
      </trkpt>
      <trkpt lat="43.58139" lon="-0.00028">
        <ele>139</ele>
        <time>2021-02-20T09:05:27Z</time>
      </trkpt>
      <trkpt lat="43.58143" lon="-0.00032">
        <ele>139</ele>
        <time>2021-02-20T09:05:31Z</time>
      </trkpt>
      <trkpt lat="43.58149" lon="-0.00033">
        <ele>139</ele>
        <time>2021-02-20T09:05:36Z</time>
      </trkpt>
      <trkpt lat="43.58188" lon="-0.00062">
        <ele>138</ele>
        <time>2021-02-20T09:06:10Z</time>
      </trkpt>
      <trkpt lat="43.58207" lon="-0.00074">
        <ele>138</ele>
        <time>2021-02-20T09:06:29Z</time>
      </trkpt>
      <trkpt lat="43.58211" lon="-0.00072">
        <ele>139</ele>
        <time>2021-02-20T09:06:33Z</time>
      </trkpt>
      <trkpt lat="43.58215" lon="-0.00072">
        <ele>139</ele>
        <time>2021-02-20T09:06:41Z</time>
      </trkpt>
      <trkpt lat="43.58221" lon="-0.00064">
        <ele>140</ele>
        <time>2021-02-20T09:07:29Z</time>
      </trkpt>
      <trkpt lat="43.58223" lon="-0.00059">
        <ele>139</ele>
        <time>2021-02-20T09:07:33Z</time>
      </trkpt>
      <trkpt lat="43.58226" lon="-0.00052">
        <ele>139</ele>
        <time>2021-02-20T09:07:45Z</time>
      </trkpt>
      <trkpt lat="43.58229" lon="-0.00047">
        <ele>139</ele>
        <time>2021-02-20T09:07:49Z</time>
      </trkpt>
      <trkpt lat="43.58234" lon="-0.00036">
        <ele>138</ele>
        <time>2021-02-20T09:07:57Z</time>
      </trkpt>
      <trkpt lat="43.58239" lon="-0.00031">
        <ele>138</ele>
        <time>2021-02-20T09:08:11Z</time>
      </trkpt>
      <trkpt lat="43.58242" lon="-0.00027">
        <ele>138</ele>
        <time>2021-02-20T09:08:15Z</time>
      </trkpt>
      <trkpt lat="43.58248" lon="-0.00029">
        <ele>138</ele>
        <time>2021-02-20T09:08:21Z</time>
      </trkpt>
      <trkpt lat="43.58272" lon="-0.00054">
        <ele>138</ele>
        <time>2021-02-20T09:08:46Z</time>
      </trkpt>
      <trkpt lat="43.58288" lon="-0.00058">
        <ele>138</ele>
        <time>2021-02-20T09:08:59Z</time>
      </trkpt>
      <trkpt lat="43.58302" lon="-0.00058">
        <ele>138</ele>
        <time>2021-02-20T09:09:09Z</time>
      </trkpt>
      <trkpt lat="43.58311" lon="-0.00062">
        <ele>138</ele>
        <time>2021-02-20T09:09:17Z</time>
      </trkpt>
      <trkpt lat="43.58315" lon="-0.0006">
        <ele>138</ele>
        <time>2021-02-20T09:09:21Z</time>
      </trkpt>
      <trkpt lat="43.58319" lon="-0.00057">
        <ele>138</ele>
        <time>2021-02-20T09:09:34Z</time>
      </trkpt>
      <trkpt lat="43.5832" lon="-0.00053">
        <ele>138</ele>
        <time>2021-02-20T09:10:20Z</time>
      </trkpt>
      <trkpt lat="43.58324" lon="-0.00051">
        <ele>138</ele>
        <time>2021-02-20T09:10:24Z</time>
      </trkpt>
      <trkpt lat="43.58331" lon="-0.00044">
        <ele>138</ele>
        <time>2021-02-20T09:10:30Z</time>
      </trkpt>
      <trkpt lat="43.58335" lon="-0.00043">
        <ele>138</ele>
        <time>2021-02-20T09:10:33Z</time>
      </trkpt>
      <trkpt lat="43.58355" lon="-0.00035">
        <ele>138</ele>
        <time>2021-02-20T09:10:50Z</time>
      </trkpt>
      <trkpt lat="43.58364" lon="-0.00034">
        <ele>138</ele>
        <time>2021-02-20T09:10:57Z</time>
      </trkpt>
      <trkpt lat="43.58372" lon="-0.00032">
        <ele>138</ele>
        <time>2021-02-20T09:11:06Z</time>
      </trkpt>
      <trkpt lat="43.5838" lon="-0.0003">
        <ele>138</ele>
        <time>2021-02-20T09:11:17Z</time>
      </trkpt>
      <trkpt lat="43.58388" lon="-0.00027">
        <ele>138</ele>
        <time>2021-02-20T09:11:25Z</time>
      </trkpt>
      <trkpt lat="43.58392" lon="-0.00021">
        <ele>138</ele>
        <time>2021-02-20T09:11:28Z</time>
      </trkpt>
      <trkpt lat="43.58403" lon="-0.00011">
        <ele>138</ele>
        <time>2021-02-20T09:11:38Z</time>
      </trkpt>
      <trkpt lat="43.58411" lon="-3.0E-5">
        <ele>138</ele>
        <time>2021-02-20T09:11:46Z</time>
      </trkpt>
      <trkpt lat="43.58416" lon="-2.0E-5">
        <ele>137</ele>
        <time>2021-02-20T09:11:50Z</time>
      </trkpt>
      <trkpt lat="43.58424" lon="4.0E-5">
        <ele>138</ele>
        <time>2021-02-20T09:11:56Z</time>
      </trkpt>
      <trkpt lat="43.58433" lon="7.0E-5">
        <ele>138</ele>
        <time>2021-02-20T09:12:04Z</time>
      </trkpt>
      <trkpt lat="43.58443" lon="8.0E-5">
        <ele>138</ele>
        <time>2021-02-20T09:12:11Z</time>
      </trkpt>
      <trkpt lat="43.5846" lon="0.00015">
        <ele>138</ele>
        <time>2021-02-20T09:12:25Z</time>
      </trkpt>
      <trkpt lat="43.58463" lon="0.00018">
        <ele>138</ele>
        <time>2021-02-20T09:12:29Z</time>
      </trkpt>
      <trkpt lat="43.58475" lon="0.00029">
        <ele>137</ele>
        <time>2021-02-20T09:12:39Z</time>
      </trkpt>
      <trkpt lat="43.58513" lon="0.00049">
        <ele>138</ele>
        <time>2021-02-20T09:13:13Z</time>
      </trkpt>
      <trkpt lat="43.58536" lon="0.0006">
        <ele>138</ele>
        <time>2021-02-20T09:13:31Z</time>
      </trkpt>
      <trkpt lat="43.5854" lon="0.00059">
        <ele>138</ele>
        <time>2021-02-20T09:13:35Z</time>
      </trkpt>
      <trkpt lat="43.58545" lon="0.00058">
        <ele>138</ele>
        <time>2021-02-20T09:13:39Z</time>
      </trkpt>
      <trkpt lat="43.5855" lon="0.00052">
        <ele>138</ele>
        <time>2021-02-20T09:13:46Z</time>
      </trkpt>
      <trkpt lat="43.58556" lon="0.00042">
        <ele>138</ele>
        <time>2021-02-20T09:13:55Z</time>
      </trkpt>
      <trkpt lat="43.58559" lon="0.00038">
        <ele>138</ele>
        <time>2021-02-20T09:13:59Z</time>
      </trkpt>
      <trkpt lat="43.58562" lon="0.00032">
        <ele>138</ele>
        <time>2021-02-20T09:14:03Z</time>
      </trkpt>
      <trkpt lat="43.58567" lon="0.00028">
        <ele>138</ele>
        <time>2021-02-20T09:14:06Z</time>
      </trkpt>
      <trkpt lat="43.58571" lon="0.00029">
        <ele>138</ele>
        <time>2021-02-20T09:14:09Z</time>
      </trkpt>
      <trkpt lat="43.58575" lon="0.00033">
        <ele>138</ele>
        <time>2021-02-20T09:14:13Z</time>
      </trkpt>
      <trkpt lat="43.58588" lon="0.0005">
        <ele>137</ele>
        <time>2021-02-20T09:14:26Z</time>
      </trkpt>
      <trkpt lat="43.58596" lon="0.00056">
        <ele>137</ele>
        <time>2021-02-20T09:14:33Z</time>
      </trkpt>
      <trkpt lat="43.58603" lon="0.00066">
        <ele>137</ele>
        <time>2021-02-20T09:14:41Z</time>
      </trkpt>
      <trkpt lat="43.58607" lon="0.00069">
        <ele>137</ele>
        <time>2021-02-20T09:14:45Z</time>
      </trkpt>
      <trkpt lat="43.5861" lon="0.0007">
        <ele>137</ele>
        <time>2021-02-20T09:14:49Z</time>
      </trkpt>
      <trkpt lat="43.58615" lon="0.00069">
        <ele>137</ele>
        <time>2021-02-20T09:14:53Z</time>
      </trkpt>
      <trkpt lat="43.58636" lon="0.00075">
        <ele>135</ele>
        <time>2021-02-20T09:15:10Z</time>
      </trkpt>
      <trkpt lat="43.58641" lon="0.00077">
        <ele>135</ele>
        <time>2021-02-20T09:15:13Z</time>
      </trkpt>
      <trkpt lat="43.58644" lon="0.00079">
        <ele>135</ele>
        <time>2021-02-20T09:15:16Z</time>
      </trkpt>
      <trkpt lat="43.58649" lon="0.0008">
        <ele>135</ele>
        <time>2021-02-20T09:15:20Z</time>
      </trkpt>
      <trkpt lat="43.58652" lon="0.00084">
        <ele>135</ele>
        <time>2021-02-20T09:15:23Z</time>
      </trkpt>
      <trkpt lat="43.58659" lon="0.00086">
        <ele>135</ele>
        <time>2021-02-20T09:15:29Z</time>
      </trkpt>
      <trkpt lat="43.58663" lon="0.00086">
        <ele>135</ele>
        <time>2021-02-20T09:15:33Z</time>
      </trkpt>
      <trkpt lat="43.58667" lon="0.00089">
        <ele>135</ele>
        <time>2021-02-20T09:15:36Z</time>
      </trkpt>
      <trkpt lat="43.58671" lon="0.00089">
        <ele>135</ele>
        <time>2021-02-20T09:15:39Z</time>
      </trkpt>
      <trkpt lat="43.58696" lon="0.00089">
        <ele>135</ele>
        <time>2021-02-20T09:15:59Z</time>
      </trkpt>
      <trkpt lat="43.58707" lon="0.00087">
        <ele>135</ele>
        <time>2021-02-20T09:16:10Z</time>
      </trkpt>
      <trkpt lat="43.58711" lon="0.00087">
        <ele>135</ele>
        <time>2021-02-20T09:16:13Z</time>
      </trkpt>
      <trkpt lat="43.58714" lon="0.00089">
        <ele>135</ele>
        <time>2021-02-20T09:16:16Z</time>
      </trkpt>
      <trkpt lat="43.58736" lon="0.00089">
        <ele>136</ele>
        <time>2021-02-20T09:16:34Z</time>
      </trkpt>
      <trkpt lat="43.58741" lon="0.00087">
        <ele>136</ele>
        <time>2021-02-20T09:16:38Z</time>
      </trkpt>
      <trkpt lat="43.58781" lon="0.00093">
        <ele>136</ele>
        <time>2021-02-20T09:17:09Z</time>
      </trkpt>
      <trkpt lat="43.58788" lon="0.00096">
        <ele>136</ele>
        <time>2021-02-20T09:17:16Z</time>
      </trkpt>
      <trkpt lat="43.58809" lon="0.001">
        <ele>137</ele>
        <time>2021-02-20T09:17:33Z</time>
      </trkpt>
      <trkpt lat="43.58814" lon="0.00102">
        <ele>137</ele>
        <time>2021-02-20T09:17:37Z</time>
      </trkpt>
      <trkpt lat="43.58819" lon="0.00103">
        <ele>137</ele>
        <time>2021-02-20T09:17:42Z</time>
      </trkpt>
      <trkpt lat="43.58822" lon="0.00108">
        <ele>137</ele>
        <time>2021-02-20T09:17:46Z</time>
      </trkpt>
      <trkpt lat="43.58823" lon="0.00122">
        <ele>138</ele>
        <time>2021-02-20T09:17:53Z</time>
      </trkpt>
      <trkpt lat="43.58827" lon="0.00136">
        <ele>137</ele>
        <time>2021-02-20T09:18:04Z</time>
      </trkpt>
      <trkpt lat="43.58832" lon="0.00146">
        <ele>137</ele>
        <time>2021-02-20T09:18:13Z</time>
      </trkpt>
      <trkpt lat="43.58842" lon="0.00178">
        <ele>137</ele>
        <time>2021-02-20T09:18:32Z</time>
      </trkpt>
      <trkpt lat="43.58844" lon="0.00195">
        <ele>137</ele>
        <time>2021-02-20T09:18:41Z</time>
      </trkpt>
      <trkpt lat="43.58851" lon="0.00214">
        <ele>137</ele>
        <time>2021-02-20T09:18:54Z</time>
      </trkpt>
      <trkpt lat="43.58854" lon="0.00218">
        <ele>137</ele>
        <time>2021-02-20T09:18:57Z</time>
      </trkpt>
      <trkpt lat="43.58855" lon="0.00224">
        <ele>137</ele>
        <time>2021-02-20T09:19:02Z</time>
      </trkpt>
      <trkpt lat="43.58862" lon="0.00216">
        <ele>136</ele>
        <time>2021-02-20T09:19:11Z</time>
      </trkpt>
      <trkpt lat="43.58864" lon="0.00211">
        <ele>136</ele>
        <time>2021-02-20T09:19:15Z</time>
      </trkpt>
      <trkpt lat="43.58877" lon="0.00202">
        <ele>136</ele>
        <time>2021-02-20T09:19:26Z</time>
      </trkpt>
      <trkpt lat="43.58886" lon="0.00195">
        <ele>136</ele>
        <time>2021-02-20T09:19:34Z</time>
      </trkpt>
      <trkpt lat="43.58894" lon="0.0019">
        <ele>136</ele>
        <time>2021-02-20T09:19:42Z</time>
      </trkpt>
      <trkpt lat="43.58918" lon="0.00163">
        <ele>136</ele>
        <time>2021-02-20T09:20:05Z</time>
      </trkpt>
      <trkpt lat="43.58921" lon="0.00159">
        <ele>136</ele>
        <time>2021-02-20T09:20:08Z</time>
      </trkpt>
      <trkpt lat="43.58933" lon="0.00149">
        <ele>137</ele>
        <time>2021-02-20T09:20:19Z</time>
      </trkpt>
      <trkpt lat="43.58939" lon="0.00139">
        <ele>137</ele>
        <time>2021-02-20T09:20:26Z</time>
      </trkpt>
      <trkpt lat="43.58948" lon="0.00133">
        <ele>137</ele>
        <time>2021-02-20T09:20:34Z</time>
      </trkpt>
      <trkpt lat="43.5896" lon="0.00121">
        <ele>137</ele>
        <time>2021-02-20T09:20:46Z</time>
      </trkpt>
      <trkpt lat="43.58967" lon="0.00116">
        <ele>137</ele>
        <time>2021-02-20T09:20:54Z</time>
      </trkpt>
      <trkpt lat="43.58971" lon="0.0011">
        <ele>137</ele>
        <time>2021-02-20T09:20:58Z</time>
      </trkpt>
      <trkpt lat="43.58985" lon="0.00091">
        <ele>137</ele>
        <time>2021-02-20T09:21:14Z</time>
      </trkpt>
      <trkpt lat="43.59015" lon="0.00055">
        <ele>137</ele>
        <time>2021-02-20T09:21:47Z</time>
      </trkpt>
      <trkpt lat="43.59018" lon="0.00048">
        <ele>137</ele>
        <time>2021-02-20T09:21:51Z</time>
      </trkpt>
      <trkpt lat="43.59022" lon="0.00046">
        <ele>137</ele>
        <time>2021-02-20T09:21:55Z</time>
      </trkpt>
      <trkpt lat="43.59027" lon="0.00049">
        <ele>138</ele>
        <time>2021-02-20T09:22:06Z</time>
      </trkpt>
      <trkpt lat="43.59027" lon="0.0003">
        <ele>138</ele>
        <time>2021-02-20T09:22:30Z</time>
      </trkpt>
      <trkpt lat="43.5902" lon="1.0E-5">
        <ele>136</ele>
        <time>2021-02-20T09:22:48Z</time>
      </trkpt>
      <trkpt lat="43.5902" lon="-6.0E-5">
        <ele>136</ele>
        <time>2021-02-20T09:22:54Z</time>
      </trkpt>
      <trkpt lat="43.59023" lon="-0.0002">
        <ele>136</ele>
        <time>2021-02-20T09:23:02Z</time>
      </trkpt>
      <trkpt lat="43.59023" lon="-0.00027">
        <ele>136</ele>
        <time>2021-02-20T09:23:06Z</time>
      </trkpt>
      <trkpt lat="43.59025" lon="-0.00032">
        <ele>137</ele>
        <time>2021-02-20T09:23:10Z</time>
      </trkpt>
      <trkpt lat="43.59026" lon="-0.00045">
        <ele>137</ele>
        <time>2021-02-20T09:23:17Z</time>
      </trkpt>
      <trkpt lat="43.59028" lon="-0.00058">
        <ele>137</ele>
        <time>2021-02-20T09:23:26Z</time>
      </trkpt>
      <trkpt lat="43.59029" lon="-0.00071">
        <ele>137</ele>
        <time>2021-02-20T09:23:34Z</time>
      </trkpt>
      <trkpt lat="43.59031" lon="-0.00077">
        <ele>137</ele>
        <time>2021-02-20T09:23:38Z</time>
      </trkpt>
      <trkpt lat="43.59032" lon="-0.00083">
        <ele>137</ele>
        <time>2021-02-20T09:23:41Z</time>
      </trkpt>
      <trkpt lat="43.59037" lon="-0.00088">
        <ele>137</ele>
        <time>2021-02-20T09:23:45Z</time>
      </trkpt>
      <trkpt lat="43.59044" lon="-0.00099">
        <ele>137</ele>
        <time>2021-02-20T09:23:52Z</time>
      </trkpt>
      <trkpt lat="43.59047" lon="-0.00103">
        <ele>137</ele>
        <time>2021-02-20T09:23:55Z</time>
      </trkpt>
      <trkpt lat="43.59054" lon="-0.00113">
        <ele>137</ele>
        <time>2021-02-20T09:24:02Z</time>
      </trkpt>
      <trkpt lat="43.59091" lon="-0.00133">
        <ele>136</ele>
        <time>2021-02-20T09:24:33Z</time>
      </trkpt>
      <trkpt lat="43.59095" lon="-0.00136">
        <ele>136</ele>
        <time>2021-02-20T09:24:36Z</time>
      </trkpt>
      <trkpt lat="43.59107" lon="-0.00151">
        <ele>136</ele>
        <time>2021-02-20T09:24:49Z</time>
      </trkpt>
      <trkpt lat="43.59112" lon="-0.00161">
        <ele>136</ele>
        <time>2021-02-20T09:24:57Z</time>
      </trkpt>
      <trkpt lat="43.59115" lon="-0.00177">
        <ele>135</ele>
        <time>2021-02-20T09:25:08Z</time>
      </trkpt>
      <trkpt lat="43.59114" lon="-0.00188">
        <ele>135</ele>
        <time>2021-02-20T09:25:18Z</time>
      </trkpt>
      <trkpt lat="43.59103" lon="-0.00199">
        <ele>136</ele>
        <time>2021-02-20T09:25:32Z</time>
      </trkpt>
      <trkpt lat="43.591" lon="-0.00204">
        <ele>136</ele>
        <time>2021-02-20T09:25:36Z</time>
      </trkpt>
      <trkpt lat="43.59099" lon="-0.00213">
        <ele>136</ele>
        <time>2021-02-20T09:25:42Z</time>
      </trkpt>
      <trkpt lat="43.591" lon="-0.00219">
        <ele>137</ele>
        <time>2021-02-20T09:25:45Z</time>
      </trkpt>
      <trkpt lat="43.59121" lon="-0.00261">
        <ele>136</ele>
        <time>2021-02-20T09:26:04Z</time>
      </trkpt>
      <trkpt lat="43.59126" lon="-0.00265">
        <ele>136</ele>
        <time>2021-02-20T09:26:09Z</time>
      </trkpt>
      <trkpt lat="43.59132" lon="-0.00276">
        <ele>136</ele>
        <time>2021-02-20T09:26:18Z</time>
      </trkpt>
      <trkpt lat="43.59139" lon="-0.00292">
        <ele>136</ele>
        <time>2021-02-20T09:26:30Z</time>
      </trkpt>
      <trkpt lat="43.59139" lon="-0.00299">
        <ele>137</ele>
        <time>2021-02-20T09:26:38Z</time>
      </trkpt>
      <trkpt lat="43.59139" lon="-0.00306">
        <ele>136</ele>
        <time>2021-02-20T09:26:43Z</time>
      </trkpt>
      <trkpt lat="43.59139" lon="-0.00313">
        <ele>136</ele>
        <time>2021-02-20T09:26:47Z</time>
      </trkpt>
      <trkpt lat="43.59141" lon="-0.00319">
        <ele>136</ele>
        <time>2021-02-20T09:26:51Z</time>
      </trkpt>
      <trkpt lat="43.59145" lon="-0.00324">
        <ele>136</ele>
        <time>2021-02-20T09:26:55Z</time>
      </trkpt>
      <trkpt lat="43.59153" lon="-0.00334">
        <ele>136</ele>
        <time>2021-02-20T09:27:02Z</time>
      </trkpt>
      <trkpt lat="43.59157" lon="-0.00338">
        <ele>136</ele>
        <time>2021-02-20T09:27:06Z</time>
      </trkpt>
      <trkpt lat="43.59159" lon="-0.00348">
        <ele>135</ele>
        <time>2021-02-20T09:27:17Z</time>
      </trkpt>
      <trkpt lat="43.59156" lon="-0.00375">
        <ele>135</ele>
        <time>2021-02-20T09:27:37Z</time>
      </trkpt>
      <trkpt lat="43.59157" lon="-0.00382">
        <ele>135</ele>
        <time>2021-02-20T09:27:41Z</time>
      </trkpt>
      <trkpt lat="43.59159" lon="-0.0039">
        <ele>135</ele>
        <time>2021-02-20T09:27:45Z</time>
      </trkpt>
      <trkpt lat="43.59163" lon="-0.00405">
        <ele>135</ele>
        <time>2021-02-20T09:27:58Z</time>
      </trkpt>
      <trkpt lat="43.59169" lon="-0.00409">
        <ele>136</ele>
        <time>2021-02-20T09:28:06Z</time>
      </trkpt>
      <trkpt lat="43.5917" lon="-0.00419">
        <ele>136</ele>
        <time>2021-02-20T09:28:25Z</time>
      </trkpt>
      <trkpt lat="43.59164" lon="-0.00426">
        <ele>136</ele>
        <time>2021-02-20T09:28:35Z</time>
      </trkpt>
      <trkpt lat="43.5916" lon="-0.00433">
        <ele>135</ele>
        <time>2021-02-20T09:28:43Z</time>
      </trkpt>
      <trkpt lat="43.59156" lon="-0.00438">
        <ele>135</ele>
        <time>2021-02-20T09:28:46Z</time>
      </trkpt>
      <trkpt lat="43.59155" lon="-0.00445">
        <ele>135</ele>
        <time>2021-02-20T09:28:51Z</time>
      </trkpt>
      <trkpt lat="43.59151" lon="-0.0045">
        <ele>135</ele>
        <time>2021-02-20T09:28:57Z</time>
      </trkpt>
      <trkpt lat="43.5916" lon="-0.00464">
        <ele>135</ele>
        <time>2021-02-20T09:29:03Z</time>
      </trkpt>
      <trkpt lat="43.59182" lon="-0.00489">
        <ele>135</ele>
        <time>2021-02-20T09:29:20Z</time>
      </trkpt>
      <trkpt lat="43.59192" lon="-0.00495">
        <ele>135</ele>
        <time>2021-02-20T09:29:28Z</time>
      </trkpt>
      <trkpt lat="43.59197" lon="-0.00499">
        <ele>135</ele>
        <time>2021-02-20T09:29:33Z</time>
      </trkpt>
      <trkpt lat="43.59211" lon="-0.00512">
        <ele>135</ele>
        <time>2021-02-20T09:29:46Z</time>
      </trkpt>
      <trkpt lat="43.59221" lon="-0.00516">
        <ele>135</ele>
        <time>2021-02-20T09:29:54Z</time>
      </trkpt>
      <trkpt lat="43.59229" lon="-0.00523">
        <ele>135</ele>
        <time>2021-02-20T09:30:02Z</time>
      </trkpt>
      <trkpt lat="43.59232" lon="-0.00528">
        <ele>135</ele>
        <time>2021-02-20T09:30:06Z</time>
      </trkpt>
      <trkpt lat="43.59237" lon="-0.0053">
        <ele>135</ele>
        <time>2021-02-20T09:30:10Z</time>
      </trkpt>
      <trkpt lat="43.59242" lon="-0.0053">
        <ele>135</ele>
        <time>2021-02-20T09:30:14Z</time>
      </trkpt>
      <trkpt lat="43.59279" lon="-0.00551">
        <ele>135</ele>
        <time>2021-02-20T09:30:45Z</time>
      </trkpt>
      <trkpt lat="43.59283" lon="-0.00552">
        <ele>135</ele>
        <time>2021-02-20T09:30:49Z</time>
      </trkpt>
      <trkpt lat="43.59292" lon="-0.00558">
        <ele>135</ele>
        <time>2021-02-20T09:30:57Z</time>
      </trkpt>
      <trkpt lat="43.59296" lon="-0.00561">
        <ele>135</ele>
        <time>2021-02-20T09:31:01Z</time>
      </trkpt>
      <trkpt lat="43.59306" lon="-0.00564">
        <ele>134</ele>
        <time>2021-02-20T09:31:10Z</time>
      </trkpt>
      <trkpt lat="43.5931" lon="-0.00569">
        <ele>134</ele>
        <time>2021-02-20T09:31:14Z</time>
      </trkpt>
      <trkpt lat="43.59321" lon="-0.00573">
        <ele>134</ele>
        <time>2021-02-20T09:31:23Z</time>
      </trkpt>
      <trkpt lat="43.59335" lon="-0.00582">
        <ele>134</ele>
        <time>2021-02-20T09:31:35Z</time>
      </trkpt>
      <trkpt lat="43.5936" lon="-0.00587">
        <ele>134</ele>
        <time>2021-02-20T09:31:54Z</time>
      </trkpt>
      <trkpt lat="43.5937" lon="-0.0059">
        <ele>134</ele>
        <time>2021-02-20T09:32:02Z</time>
      </trkpt>
      <trkpt lat="43.59374" lon="-0.00593">
        <ele>134</ele>
        <time>2021-02-20T09:32:06Z</time>
      </trkpt>
      <trkpt lat="43.59379" lon="-0.00594">
        <ele>135</ele>
        <time>2021-02-20T09:32:11Z</time>
      </trkpt>
      <trkpt lat="43.59383" lon="-0.00593">
        <ele>135</ele>
        <time>2021-02-20T09:32:14Z</time>
      </trkpt>
      <trkpt lat="43.59407" lon="-0.00578">
        <ele>134</ele>
        <time>2021-02-20T09:32:33Z</time>
      </trkpt>
      <trkpt lat="43.59413" lon="-0.00565">
        <ele>134</ele>
        <time>2021-02-20T09:32:39Z</time>
      </trkpt>
      <trkpt lat="43.59417" lon="-0.00553">
        <ele>134</ele>
        <time>2021-02-20T09:32:46Z</time>
      </trkpt>
      <trkpt lat="43.59422" lon="-0.00546">
        <ele>135</ele>
        <time>2021-02-20T09:32:58Z</time>
      </trkpt>
      <trkpt lat="43.59425" lon="-0.00542">
        <ele>135</ele>
        <time>2021-02-20T09:33:02Z</time>
      </trkpt>
      <trkpt lat="43.59431" lon="-0.00542">
        <ele>134</ele>
        <time>2021-02-20T09:33:10Z</time>
      </trkpt>
      <trkpt lat="43.59436" lon="-0.00541">
        <ele>134</ele>
        <time>2021-02-20T09:33:14Z</time>
      </trkpt>
      <trkpt lat="43.59447" lon="-0.00532">
        <ele>134</ele>
        <time>2021-02-20T09:33:21Z</time>
      </trkpt>
      <trkpt lat="43.59456" lon="-0.00517">
        <ele>134</ele>
        <time>2021-02-20T09:33:33Z</time>
      </trkpt>
      <trkpt lat="43.59465" lon="-0.005">
        <ele>134</ele>
        <time>2021-02-20T09:33:45Z</time>
      </trkpt>
      <trkpt lat="43.59468" lon="-0.00496">
        <ele>134</ele>
        <time>2021-02-20T09:33:49Z</time>
      </trkpt>
      <trkpt lat="43.59471" lon="-0.00487">
        <ele>134</ele>
        <time>2021-02-20T09:33:55Z</time>
      </trkpt>
      <trkpt lat="43.59484" lon="-0.00464">
        <ele>134</ele>
        <time>2021-02-20T09:34:11Z</time>
      </trkpt>
      <trkpt lat="43.59487" lon="-0.00451">
        <ele>134</ele>
        <time>2021-02-20T09:34:17Z</time>
      </trkpt>
      <trkpt lat="43.5949" lon="-0.0044">
        <ele>134</ele>
        <time>2021-02-20T09:34:24Z</time>
      </trkpt>
      <trkpt lat="43.59494" lon="-0.00432">
        <ele>134</ele>
        <time>2021-02-20T09:34:30Z</time>
      </trkpt>
      <trkpt lat="43.59497" lon="-0.00427">
        <ele>134</ele>
        <time>2021-02-20T09:34:34Z</time>
      </trkpt>
      <trkpt lat="43.59499" lon="-0.00421">
        <ele>134</ele>
        <time>2021-02-20T09:34:38Z</time>
      </trkpt>
      <trkpt lat="43.59504" lon="-0.00409">
        <ele>134</ele>
        <time>2021-02-20T09:34:45Z</time>
      </trkpt>
      <trkpt lat="43.59507" lon="-0.00402">
        <ele>134</ele>
        <time>2021-02-20T09:34:50Z</time>
      </trkpt>
      <trkpt lat="43.59508" lon="-0.00397">
        <ele>134</ele>
        <time>2021-02-20T09:34:54Z</time>
      </trkpt>
      <trkpt lat="43.5951" lon="-0.00391">
        <ele>134</ele>
        <time>2021-02-20T09:34:58Z</time>
      </trkpt>
      <trkpt lat="43.59514" lon="-0.00383">
        <ele>134</ele>
        <time>2021-02-20T09:35:08Z</time>
      </trkpt>
      <trkpt lat="43.59519" lon="-0.00383">
        <ele>134</ele>
        <time>2021-02-20T09:35:14Z</time>
      </trkpt>
      <trkpt lat="43.59524" lon="-0.00383">
        <ele>134</ele>
        <time>2021-02-20T09:35:29Z</time>
      </trkpt>
      <trkpt lat="43.59529" lon="-0.00391">
        <ele>133</ele>
        <time>2021-02-20T09:35:51Z</time>
      </trkpt>
      <trkpt lat="43.59541" lon="-0.00401">
        <ele>133</ele>
        <time>2021-02-20T09:36:01Z</time>
      </trkpt>
      <trkpt lat="43.59545" lon="-0.00402">
        <ele>133</ele>
        <time>2021-02-20T09:36:05Z</time>
      </trkpt>
      <trkpt lat="43.59551" lon="-0.00405">
        <ele>133</ele>
        <time>2021-02-20T09:36:10Z</time>
      </trkpt>
      <trkpt lat="43.59572" lon="-0.00411">
        <ele>133</ele>
        <time>2021-02-20T09:36:26Z</time>
      </trkpt>
      <trkpt lat="43.59576" lon="-0.00409">
        <ele>133</ele>
        <time>2021-02-20T09:36:30Z</time>
      </trkpt>
      <trkpt lat="43.59585" lon="-0.00392">
        <ele>134</ele>
        <time>2021-02-20T09:36:40Z</time>
      </trkpt>
      <trkpt lat="43.59589" lon="-0.00389">
        <ele>134</ele>
        <time>2021-02-20T09:36:44Z</time>
      </trkpt>
      <trkpt lat="43.59598" lon="-0.0039">
        <ele>134</ele>
        <time>2021-02-20T09:36:53Z</time>
      </trkpt>
      <trkpt lat="43.59602" lon="-0.00394">
        <ele>134</ele>
        <time>2021-02-20T09:36:57Z</time>
      </trkpt>
      <trkpt lat="43.59612" lon="-0.00396">
        <ele>134</ele>
        <time>2021-02-20T09:37:06Z</time>
      </trkpt>
      <trkpt lat="43.59617" lon="-0.004">
        <ele>134</ele>
        <time>2021-02-20T09:37:10Z</time>
      </trkpt>
      <trkpt lat="43.59621" lon="-0.00404">
        <ele>134</ele>
        <time>2021-02-20T09:37:13Z</time>
      </trkpt>
      <trkpt lat="43.59625" lon="-0.00405">
        <ele>134</ele>
        <time>2021-02-20T09:37:16Z</time>
      </trkpt>
      <trkpt lat="43.59638" lon="-0.00411">
        <ele>134</ele>
        <time>2021-02-20T09:37:27Z</time>
      </trkpt>
      <trkpt lat="43.59647" lon="-0.00414">
        <ele>134</ele>
        <time>2021-02-20T09:37:35Z</time>
      </trkpt>
      <trkpt lat="43.59651" lon="-0.00416">
        <ele>134</ele>
        <time>2021-02-20T09:37:38Z</time>
      </trkpt>
      <trkpt lat="43.59656" lon="-0.00417">
        <ele>134</ele>
        <time>2021-02-20T09:37:42Z</time>
      </trkpt>
      <trkpt lat="43.59672" lon="-0.00427">
        <ele>134</ele>
        <time>2021-02-20T09:37:56Z</time>
      </trkpt>
      <trkpt lat="43.59681" lon="-0.00435">
        <ele>134</ele>
        <time>2021-02-20T09:38:03Z</time>
      </trkpt>
      <trkpt lat="43.59695" lon="-0.00438">
        <ele>134</ele>
        <time>2021-02-20T09:38:14Z</time>
      </trkpt>
      <trkpt lat="43.59703" lon="-0.00436">
        <ele>134</ele>
        <time>2021-02-20T09:38:20Z</time>
      </trkpt>
      <trkpt lat="43.59707" lon="-0.00436">
        <ele>134</ele>
        <time>2021-02-20T09:38:23Z</time>
      </trkpt>
      <trkpt lat="43.59721" lon="-0.00441">
        <ele>134</ele>
        <time>2021-02-20T09:38:34Z</time>
      </trkpt>
      <trkpt lat="43.59729" lon="-0.0044">
        <ele>134</ele>
        <time>2021-02-20T09:38:40Z</time>
      </trkpt>
      <trkpt lat="43.59732" lon="-0.00441">
        <ele>134</ele>
        <time>2021-02-20T09:38:43Z</time>
      </trkpt>
      <trkpt lat="43.59741" lon="-0.00441">
        <ele>134</ele>
        <time>2021-02-20T09:38:49Z</time>
      </trkpt>
      <trkpt lat="43.59748" lon="-0.00442">
        <ele>134</ele>
        <time>2021-02-20T09:38:55Z</time>
      </trkpt>
      <trkpt lat="43.59752" lon="-0.00441">
        <ele>134</ele>
        <time>2021-02-20T09:38:58Z</time>
      </trkpt>
      <trkpt lat="43.59768" lon="-0.00444">
        <ele>134</ele>
        <time>2021-02-20T09:39:10Z</time>
      </trkpt>
      <trkpt lat="43.59772" lon="-0.00443">
        <ele>134</ele>
        <time>2021-02-20T09:39:13Z</time>
      </trkpt>
      <trkpt lat="43.59812" lon="-0.00443">
        <ele>134</ele>
        <time>2021-02-20T09:39:45Z</time>
      </trkpt>
      <trkpt lat="43.59852" lon="-0.00446">
        <ele>134</ele>
        <time>2021-02-20T09:40:15Z</time>
      </trkpt>
      <trkpt lat="43.59859" lon="-0.00447">
        <ele>134</ele>
        <time>2021-02-20T09:40:21Z</time>
      </trkpt>
      <trkpt lat="43.59876" lon="-0.00453">
        <ele>134</ele>
        <time>2021-02-20T09:40:35Z</time>
      </trkpt>
      <trkpt lat="43.59882" lon="-0.00458">
        <ele>134</ele>
        <time>2021-02-20T09:40:41Z</time>
      </trkpt>
      <trkpt lat="43.59887" lon="-0.00459">
        <ele>134</ele>
        <time>2021-02-20T09:40:45Z</time>
      </trkpt>
      <trkpt lat="43.59895" lon="-0.00464">
        <ele>134</ele>
        <time>2021-02-20T09:40:51Z</time>
      </trkpt>
      <trkpt lat="43.59903" lon="-0.00464">
        <ele>135</ele>
        <time>2021-02-20T09:40:57Z</time>
      </trkpt>
      <trkpt lat="43.59943" lon="-0.00461">
        <ele>134</ele>
        <time>2021-02-20T09:41:29Z</time>
      </trkpt>
      <trkpt lat="43.59958" lon="-0.00463">
        <ele>134</ele>
        <time>2021-02-20T09:41:41Z</time>
      </trkpt>
      <trkpt lat="43.59966" lon="-0.00462">
        <ele>134</ele>
        <time>2021-02-20T09:41:48Z</time>
      </trkpt>
      <trkpt lat="43.59971" lon="-0.00461">
        <ele>134</ele>
        <time>2021-02-20T09:41:52Z</time>
      </trkpt>
      <trkpt lat="43.59988" lon="-0.00453">
        <ele>134</ele>
        <time>2021-02-20T09:42:07Z</time>
      </trkpt>
      <trkpt lat="43.60003" lon="-0.00442">
        <ele>134</ele>
        <time>2021-02-20T09:42:22Z</time>
      </trkpt>
      <trkpt lat="43.60006" lon="-0.00437">
        <ele>134</ele>
        <time>2021-02-20T09:42:25Z</time>
      </trkpt>
      <trkpt lat="43.60027" lon="-0.00429">
        <ele>133</ele>
        <time>2021-02-20T09:42:43Z</time>
      </trkpt>
      <trkpt lat="43.60031" lon="-0.00429">
        <ele>133</ele>
        <time>2021-02-20T09:42:46Z</time>
      </trkpt>
      <trkpt lat="43.60055" lon="-0.00427">
        <ele>133</ele>
        <time>2021-02-20T09:43:05Z</time>
      </trkpt>
      <trkpt lat="43.60059" lon="-0.00429">
        <ele>133</ele>
        <time>2021-02-20T09:43:09Z</time>
      </trkpt>
      <trkpt lat="43.60065" lon="-0.00429">
        <ele>133</ele>
        <time>2021-02-20T09:43:16Z</time>
      </trkpt>
      <trkpt lat="43.6007" lon="-0.00427">
        <ele>133</ele>
        <time>2021-02-20T09:43:20Z</time>
      </trkpt>
      <trkpt lat="43.60079" lon="-0.00429">
        <ele>133</ele>
        <time>2021-02-20T09:43:26Z</time>
      </trkpt>
      <trkpt lat="43.60084" lon="-0.00431">
        <ele>133</ele>
        <time>2021-02-20T09:43:30Z</time>
      </trkpt>
      <trkpt lat="43.60088" lon="-0.00431">
        <ele>133</ele>
        <time>2021-02-20T09:43:34Z</time>
      </trkpt>
      <trkpt lat="43.60092" lon="-0.00433">
        <ele>133</ele>
        <time>2021-02-20T09:43:38Z</time>
      </trkpt>
      <trkpt lat="43.60114" lon="-0.0044">
        <ele>133</ele>
        <time>2021-02-20T09:43:57Z</time>
      </trkpt>
      <trkpt lat="43.60119" lon="-0.00439">
        <ele>133</ele>
        <time>2021-02-20T09:44:00Z</time>
      </trkpt>
      <trkpt lat="43.60123" lon="-0.00439">
        <ele>133</ele>
        <time>2021-02-20T09:44:04Z</time>
      </trkpt>
      <trkpt lat="43.60156" lon="-0.00456">
        <ele>133</ele>
        <time>2021-02-20T09:44:34Z</time>
      </trkpt>
      <trkpt lat="43.6016" lon="-0.0046">
        <ele>133</ele>
        <time>2021-02-20T09:44:38Z</time>
      </trkpt>
      <trkpt lat="43.60156" lon="-0.00479">
        <ele>133</ele>
        <time>2021-02-20T09:44:52Z</time>
      </trkpt>
      <trkpt lat="43.60155" lon="-0.00491">
        <ele>133</ele>
        <time>2021-02-20T09:45:00Z</time>
      </trkpt>
      <trkpt lat="43.60152" lon="-0.00508">
        <ele>133</ele>
        <time>2021-02-20T09:45:10Z</time>
      </trkpt>
      <trkpt lat="43.6015" lon="-0.0052">
        <ele>133</ele>
        <time>2021-02-20T09:45:18Z</time>
      </trkpt>
      <trkpt lat="43.60149" lon="-0.00524">
        <ele>133</ele>
        <time>2021-02-20T09:45:20Z</time>
      </trkpt>
      <trkpt lat="43.60144" lon="-0.00562">
        <ele>133</ele>
        <time>2021-02-20T09:45:43Z</time>
      </trkpt>
      <trkpt lat="43.60145" lon="-0.0057">
        <ele>134</ele>
        <time>2021-02-20T09:45:48Z</time>
      </trkpt>
      <trkpt lat="43.60143" lon="-0.00578">
        <ele>134</ele>
        <time>2021-02-20T09:45:54Z</time>
      </trkpt>
      <trkpt lat="43.6014" lon="-0.00584">
        <ele>134</ele>
        <time>2021-02-20T09:45:59Z</time>
      </trkpt>
      <trkpt lat="43.60136" lon="-0.0059">
        <ele>133</ele>
        <time>2021-02-20T09:46:04Z</time>
      </trkpt>
      <trkpt lat="43.60122" lon="-0.00627">
        <ele>132</ele>
        <time>2021-02-20T09:46:29Z</time>
      </trkpt>
      <trkpt lat="43.60118" lon="-0.00631">
        <ele>132</ele>
        <time>2021-02-20T09:46:37Z</time>
      </trkpt>
      <trkpt lat="43.60115" lon="-0.00635">
        <ele>132</ele>
        <time>2021-02-20T09:46:49Z</time>
      </trkpt>
      <trkpt lat="43.60115" lon="-0.00643">
        <ele>132</ele>
        <time>2021-02-20T09:47:05Z</time>
      </trkpt>
      <trkpt lat="43.60117" lon="-0.00655">
        <ele>133</ele>
        <time>2021-02-20T09:47:14Z</time>
      </trkpt>
      <trkpt lat="43.60116" lon="-0.00662">
        <ele>133</ele>
        <time>2021-02-20T09:47:18Z</time>
      </trkpt>
      <trkpt lat="43.60119" lon="-0.00667">
        <ele>133</ele>
        <time>2021-02-20T09:47:21Z</time>
      </trkpt>
      <trkpt lat="43.60123" lon="-0.00671">
        <ele>133</ele>
        <time>2021-02-20T09:47:25Z</time>
      </trkpt>
      <trkpt lat="43.60149" lon="-0.00681">
        <ele>133</ele>
        <time>2021-02-20T09:47:44Z</time>
      </trkpt>
      <trkpt lat="43.60163" lon="-0.00682">
        <ele>133</ele>
        <time>2021-02-20T09:47:58Z</time>
      </trkpt>
      <trkpt lat="43.60177" lon="-0.00687">
        <ele>133</ele>
        <time>2021-02-20T09:48:08Z</time>
      </trkpt>
      <trkpt lat="43.60181" lon="-0.00687">
        <ele>132</ele>
        <time>2021-02-20T09:48:11Z</time>
      </trkpt>
      <trkpt lat="43.60186" lon="-0.00686">
        <ele>133</ele>
        <time>2021-02-20T09:48:17Z</time>
      </trkpt>
      <trkpt lat="43.60189" lon="-0.00682">
        <ele>133</ele>
        <time>2021-02-20T09:48:25Z</time>
      </trkpt>
      <trkpt lat="43.60194" lon="-0.00687">
        <ele>133</ele>
        <time>2021-02-20T09:48:37Z</time>
      </trkpt>
      <trkpt lat="43.60197" lon="-0.00691">
        <ele>132</ele>
        <time>2021-02-20T09:48:41Z</time>
      </trkpt>
      <trkpt lat="43.60205" lon="-0.00695">
        <ele>132</ele>
        <time>2021-02-20T09:48:47Z</time>
      </trkpt>
      <trkpt lat="43.60209" lon="-0.00695">
        <ele>132</ele>
        <time>2021-02-20T09:48:50Z</time>
      </trkpt>
      <trkpt lat="43.60222" lon="-0.00704">
        <ele>132</ele>
        <time>2021-02-20T09:49:02Z</time>
      </trkpt>
      <trkpt lat="43.60254" lon="-0.00709">
        <ele>132</ele>
        <time>2021-02-20T09:49:26Z</time>
      </trkpt>
      <trkpt lat="43.60257" lon="-0.00712">
        <ele>132</ele>
        <time>2021-02-20T09:49:29Z</time>
      </trkpt>
      <trkpt lat="43.60261" lon="-0.00712">
        <ele>132</ele>
        <time>2021-02-20T09:49:33Z</time>
      </trkpt>
      <trkpt lat="43.60286" lon="-0.00711">
        <ele>132</ele>
        <time>2021-02-20T09:49:54Z</time>
      </trkpt>
      <trkpt lat="43.60307" lon="-0.00714">
        <ele>132</ele>
        <time>2021-02-20T09:50:08Z</time>
      </trkpt>
      <trkpt lat="43.60311" lon="-0.00713">
        <ele>132</ele>
        <time>2021-02-20T09:50:12Z</time>
      </trkpt>
      <trkpt lat="43.60315" lon="-0.0071">
        <ele>132</ele>
        <time>2021-02-20T09:50:15Z</time>
      </trkpt>
      <trkpt lat="43.60326" lon="-0.00707">
        <ele>132</ele>
        <time>2021-02-20T09:50:26Z</time>
      </trkpt>
      <trkpt lat="43.60323" lon="-0.00703">
        <ele>132</ele>
        <time>2021-02-20T09:50:34Z</time>
      </trkpt>
      <trkpt lat="43.60325" lon="-0.00696">
        <ele>132</ele>
        <time>2021-02-20T09:50:45Z</time>
      </trkpt>
    </trkseg>
  </trk>
</gpx>